<?xml version="1.0" encoding="UTF-8" standalone="no" ?>
<gpx xmlns="http://www.topografix.com/GPX/1/1" xmlns:xsi="http://www.w3.org/2001/XMLSchema-instance" xsi:schemaLocation="http://www.topografix.com/GPX/1/1 http://www.topografix.com/GPX/1/1/gpx.xsd" version="1.1" creator="VisuGPX - https://www.visugpx.com">
  <metadata>
    <name>Grand Galbert (et Taillefer)</name>
    <desc><![CDATA[Montée au Taillefer puis boucle par le Grand Galbert

l'A/R au taillefer est purement optionnel, la boucle par le grand Galbert étant déjà assez importante.

Cheminement complètement hors sentier du lac fourchu au sommet du grand galbert, puis jusqu'au refuge. A ne faire que par bonne visibilité]]></desc>
  </metadata>
  <trk>
    <name><![CDATA[taillefer et grand galbert]]></name>
    <desc><![CDATA[<p>Heure de départ: 08/23/2018 08:57<br/>Heure d'arrivée: 08/23/2018 17:07<br/>Distance: 22,5 km (08:09)<br/>Temps déplacement: 06:50<br/>Vitesse moyenne: 2,76 km/h<br/>Vitesse moyenne mouv.: 3,29 km/h<br/>Vitesse Max.: 8,03 km/h<br/>Altitude minimale: 1391 m<br/>Altitude maximale: 2883 m<br/>Vitesse de montée: 428,5 m/h<br/>Vitesse de descente: -595,5 m/h<br/>Gain d'altitude: 2031 m<br/>Perte d'altitude: -2013 m<br/>Temps de montée: 04:44<br/>Temps de descente: 03:22<br/></p><hr align="center" width="480" style="height: 2px; width: 517px"/>]]></desc>
    <trkseg>
      <trkpt lat="45.05512" lon="5.97402">
        <ele>1393.25</ele>
        <time>2018-08-23T06:57:30Z</time>
      </trkpt>
      <trkpt lat="45.05528" lon="5.97426">
        <ele>1395.31</ele>
        <time>2018-08-23T06:57:31Z</time>
      </trkpt>
      <trkpt lat="45.05547" lon="5.97426">
        <ele>1391.38</ele>
        <time>2018-08-23T06:58:45Z</time>
      </trkpt>
      <trkpt lat="45.05565" lon="5.9743">
        <ele>1394.05</ele>
        <time>2018-08-23T06:59:02Z</time>
      </trkpt>
      <trkpt lat="45.05583" lon="5.97426">
        <ele>1396.67</ele>
        <time>2018-08-23T06:59:19Z</time>
      </trkpt>
      <trkpt lat="45.05602" lon="5.97421">
        <ele>1399.08</ele>
        <time>2018-08-23T06:59:33Z</time>
      </trkpt>
      <trkpt lat="45.0562" lon="5.9742">
        <ele>1400.86</ele>
        <time>2018-08-23T06:59:44Z</time>
      </trkpt>
      <trkpt lat="45.05638" lon="5.97426">
        <ele>1404.37</ele>
        <time>2018-08-23T07:00:04Z</time>
      </trkpt>
      <trkpt lat="45.05656" lon="5.97432">
        <ele>1407.51</ele>
        <time>2018-08-23T07:00:20Z</time>
      </trkpt>
      <trkpt lat="45.05674" lon="5.9744">
        <ele>1411.2</ele>
        <time>2018-08-23T07:00:37Z</time>
      </trkpt>
      <trkpt lat="45.05691" lon="5.97447">
        <ele>1413.65</ele>
        <time>2018-08-23T07:00:56Z</time>
      </trkpt>
      <trkpt lat="45.0571" lon="5.97443">
        <ele>1414.37</ele>
        <time>2018-08-23T07:01:11Z</time>
      </trkpt>
      <trkpt lat="45.05728" lon="5.97443">
        <ele>1417.73</ele>
        <time>2018-08-23T07:01:30Z</time>
      </trkpt>
      <trkpt lat="45.05748" lon="5.97439">
        <ele>1419.79</ele>
        <time>2018-08-23T07:01:47Z</time>
      </trkpt>
      <trkpt lat="45.05766" lon="5.97433">
        <ele>1420.78</ele>
        <time>2018-08-23T07:02:02Z</time>
      </trkpt>
      <trkpt lat="45.05784" lon="5.97434">
        <ele>1422.23</ele>
        <time>2018-08-23T07:02:16Z</time>
      </trkpt>
      <trkpt lat="45.05803" lon="5.97434">
        <ele>1423.94</ele>
        <time>2018-08-23T07:02:33Z</time>
      </trkpt>
      <trkpt lat="45.05821" lon="5.97425">
        <ele>1426.19</ele>
        <time>2018-08-23T07:02:50Z</time>
      </trkpt>
      <trkpt lat="45.05832" lon="5.97404">
        <ele>1425.95</ele>
        <time>2018-08-23T07:03:10Z</time>
      </trkpt>
      <trkpt lat="45.05837" lon="5.97378">
        <ele>1428.65</ele>
        <time>2018-08-23T07:03:24Z</time>
      </trkpt>
      <trkpt lat="45.0584" lon="5.97351">
        <ele>1431.63</ele>
        <time>2018-08-23T07:03:43Z</time>
      </trkpt>
      <trkpt lat="45.05832" lon="5.97328">
        <ele>1433.11</ele>
        <time>2018-08-23T07:03:59Z</time>
      </trkpt>
      <trkpt lat="45.05818" lon="5.97309">
        <ele>1433.25</ele>
        <time>2018-08-23T07:04:18Z</time>
      </trkpt>
      <trkpt lat="45.05804" lon="5.9729">
        <ele>1434.44</ele>
        <time>2018-08-23T07:04:35Z</time>
      </trkpt>
      <trkpt lat="45.0579" lon="5.97269">
        <ele>1436.7</ele>
        <time>2018-08-23T07:04:53Z</time>
      </trkpt>
      <trkpt lat="45.05791" lon="5.97243">
        <ele>1438.27</ele>
        <time>2018-08-23T07:05:12Z</time>
      </trkpt>
      <trkpt lat="45.05802" lon="5.97222">
        <ele>1440.95</ele>
        <time>2018-08-23T07:05:30Z</time>
      </trkpt>
      <trkpt lat="45.05805" lon="5.97196">
        <ele>1445.81</ele>
        <time>2018-08-23T07:05:50Z</time>
      </trkpt>
      <trkpt lat="45.05793" lon="5.97176">
        <ele>1449.05</ele>
        <time>2018-08-23T07:06:05Z</time>
      </trkpt>
      <trkpt lat="45.05779" lon="5.97158">
        <ele>1452.51</ele>
        <time>2018-08-23T07:06:24Z</time>
      </trkpt>
      <trkpt lat="45.05767" lon="5.97138">
        <ele>1456.05</ele>
        <time>2018-08-23T07:06:41Z</time>
      </trkpt>
      <trkpt lat="45.05757" lon="5.97116">
        <ele>1458.36</ele>
        <time>2018-08-23T07:06:57Z</time>
      </trkpt>
      <trkpt lat="45.05745" lon="5.97095">
        <ele>1460.96</ele>
        <time>2018-08-23T07:07:14Z</time>
      </trkpt>
      <trkpt lat="45.05735" lon="5.97074">
        <ele>1464.58</ele>
        <time>2018-08-23T07:07:30Z</time>
      </trkpt>
      <trkpt lat="45.05726" lon="5.97051">
        <ele>1467.92</ele>
        <time>2018-08-23T07:07:46Z</time>
      </trkpt>
      <trkpt lat="45.05714" lon="5.97031">
        <ele>1471</ele>
        <time>2018-08-23T07:08:07Z</time>
      </trkpt>
      <trkpt lat="45.05701" lon="5.97013">
        <ele>1472.26</ele>
        <time>2018-08-23T07:08:22Z</time>
      </trkpt>
      <trkpt lat="45.05691" lon="5.96992">
        <ele>1472.94</ele>
        <time>2018-08-23T07:08:38Z</time>
      </trkpt>
      <trkpt lat="45.05684" lon="5.96967">
        <ele>1474.14</ele>
        <time>2018-08-23T07:08:55Z</time>
      </trkpt>
      <trkpt lat="45.05691" lon="5.96942">
        <ele>1475.33</ele>
        <time>2018-08-23T07:09:14Z</time>
      </trkpt>
      <trkpt lat="45.05705" lon="5.96925">
        <ele>1476.71</ele>
        <time>2018-08-23T07:09:30Z</time>
      </trkpt>
      <trkpt lat="45.05721" lon="5.96912">
        <ele>1478.17</ele>
        <time>2018-08-23T07:09:45Z</time>
      </trkpt>
      <trkpt lat="45.05736" lon="5.96897">
        <ele>1481.56</ele>
        <time>2018-08-23T07:10:02Z</time>
      </trkpt>
      <trkpt lat="45.05752" lon="5.96883">
        <ele>1485.21</ele>
        <time>2018-08-23T07:10:20Z</time>
      </trkpt>
      <trkpt lat="45.05762" lon="5.96862">
        <ele>1487.74</ele>
        <time>2018-08-23T07:10:41Z</time>
      </trkpt>
      <trkpt lat="45.0575" lon="5.96841">
        <ele>1490.57</ele>
        <time>2018-08-23T07:10:54Z</time>
      </trkpt>
      <trkpt lat="45.05736" lon="5.96825">
        <ele>1493.39</ele>
        <time>2018-08-23T07:11:11Z</time>
      </trkpt>
      <trkpt lat="45.05728" lon="5.96802">
        <ele>1496.24</ele>
        <time>2018-08-23T07:11:33Z</time>
      </trkpt>
      <trkpt lat="45.05727" lon="5.96776">
        <ele>1497.45</ele>
        <time>2018-08-23T07:11:50Z</time>
      </trkpt>
      <trkpt lat="45.05718" lon="5.96754">
        <ele>1499.39</ele>
        <time>2018-08-23T07:12:10Z</time>
      </trkpt>
      <trkpt lat="45.05726" lon="5.96778">
        <ele>1500.46</ele>
        <time>2018-08-23T07:12:32Z</time>
      </trkpt>
      <trkpt lat="45.05726" lon="5.96804">
        <ele>1499.65</ele>
        <time>2018-08-23T07:12:49Z</time>
      </trkpt>
      <trkpt lat="45.05745" lon="5.96807">
        <ele>1498.73</ele>
        <time>2018-08-23T07:13:26Z</time>
      </trkpt>
      <trkpt lat="45.0575" lon="5.96783">
        <ele>1501.22</ele>
        <time>2018-08-23T07:14:06Z</time>
      </trkpt>
      <trkpt lat="45.05747" lon="5.96757">
        <ele>1503.9</ele>
        <time>2018-08-23T07:14:28Z</time>
      </trkpt>
      <trkpt lat="45.05738" lon="5.96734">
        <ele>1509.26</ele>
        <time>2018-08-23T07:15:10Z</time>
      </trkpt>
      <trkpt lat="45.0573" lon="5.96711">
        <ele>1513.66</ele>
        <time>2018-08-23T07:15:29Z</time>
      </trkpt>
      <trkpt lat="45.05731" lon="5.96684">
        <ele>1517.76</ele>
        <time>2018-08-23T07:15:45Z</time>
      </trkpt>
      <trkpt lat="45.05732" lon="5.96658">
        <ele>1522.26</ele>
        <time>2018-08-23T07:16:04Z</time>
      </trkpt>
      <trkpt lat="45.05735" lon="5.96633">
        <ele>1525.79</ele>
        <time>2018-08-23T07:16:24Z</time>
      </trkpt>
      <trkpt lat="45.05731" lon="5.96607">
        <ele>1527.83</ele>
        <time>2018-08-23T07:16:47Z</time>
      </trkpt>
      <trkpt lat="45.0572" lon="5.96587">
        <ele>1530.89</ele>
        <time>2018-08-23T07:17:14Z</time>
      </trkpt>
      <trkpt lat="45.05702" lon="5.96582">
        <ele>1532.31</ele>
        <time>2018-08-23T07:17:29Z</time>
      </trkpt>
      <trkpt lat="45.05685" lon="5.96572">
        <ele>1534.47</ele>
        <time>2018-08-23T07:17:48Z</time>
      </trkpt>
      <trkpt lat="45.05675" lon="5.96549">
        <ele>1536.5</ele>
        <time>2018-08-23T07:18:05Z</time>
      </trkpt>
      <trkpt lat="45.05668" lon="5.96523">
        <ele>1543.31</ele>
        <time>2018-08-23T07:18:31Z</time>
      </trkpt>
      <trkpt lat="45.05664" lon="5.96495">
        <ele>1551.66</ele>
        <time>2018-08-23T07:18:59Z</time>
      </trkpt>
      <trkpt lat="45.05661" lon="5.96469">
        <ele>1557.97</ele>
        <time>2018-08-23T07:19:23Z</time>
      </trkpt>
      <trkpt lat="45.05657" lon="5.96444">
        <ele>1561.09</ele>
        <time>2018-08-23T07:19:47Z</time>
      </trkpt>
      <trkpt lat="45.05657" lon="5.96418">
        <ele>1564.32</ele>
        <time>2018-08-23T07:20:09Z</time>
      </trkpt>
      <trkpt lat="45.05645" lon="5.96398">
        <ele>1565.38</ele>
        <time>2018-08-23T07:20:25Z</time>
      </trkpt>
      <trkpt lat="45.05633" lon="5.96379">
        <ele>1566.66</ele>
        <time>2018-08-23T07:20:44Z</time>
      </trkpt>
      <trkpt lat="45.05626" lon="5.96355">
        <ele>1568.09</ele>
        <time>2018-08-23T07:21:07Z</time>
      </trkpt>
      <trkpt lat="45.05617" lon="5.96332">
        <ele>1571.1</ele>
        <time>2018-08-23T07:21:28Z</time>
      </trkpt>
      <trkpt lat="45.05606" lon="5.96311">
        <ele>1574.35</ele>
        <time>2018-08-23T07:21:52Z</time>
      </trkpt>
      <trkpt lat="45.05597" lon="5.96288">
        <ele>1578.84</ele>
        <time>2018-08-23T07:22:13Z</time>
      </trkpt>
      <trkpt lat="45.05585" lon="5.96267">
        <ele>1585.28</ele>
        <time>2018-08-23T07:22:41Z</time>
      </trkpt>
      <trkpt lat="45.05576" lon="5.96245">
        <ele>1588.32</ele>
        <time>2018-08-23T07:22:59Z</time>
      </trkpt>
      <trkpt lat="45.05568" lon="5.9622">
        <ele>1590.28</ele>
        <time>2018-08-23T07:23:17Z</time>
      </trkpt>
      <trkpt lat="45.05557" lon="5.96199">
        <ele>1591.1</ele>
        <time>2018-08-23T07:23:37Z</time>
      </trkpt>
      <trkpt lat="45.05548" lon="5.96176">
        <ele>1596.97</ele>
        <time>2018-08-23T07:24:07Z</time>
      </trkpt>
      <trkpt lat="45.05542" lon="5.96151">
        <ele>1600.09</ele>
        <time>2018-08-23T07:24:30Z</time>
      </trkpt>
      <trkpt lat="45.05537" lon="5.96125">
        <ele>1601.89</ele>
        <time>2018-08-23T07:24:49Z</time>
      </trkpt>
      <trkpt lat="45.05541" lon="5.96099">
        <ele>1604.43</ele>
        <time>2018-08-23T07:25:16Z</time>
      </trkpt>
      <trkpt lat="45.05553" lon="5.9608">
        <ele>1606.7</ele>
        <time>2018-08-23T07:25:40Z</time>
      </trkpt>
      <trkpt lat="45.05557" lon="5.96054">
        <ele>1610.87</ele>
        <time>2018-08-23T07:26:11Z</time>
      </trkpt>
      <trkpt lat="45.05571" lon="5.96037">
        <ele>1614.81</ele>
        <time>2018-08-23T07:26:33Z</time>
      </trkpt>
      <trkpt lat="45.0558" lon="5.96014">
        <ele>1617</ele>
        <time>2018-08-23T07:26:56Z</time>
      </trkpt>
      <trkpt lat="45.05588" lon="5.96038">
        <ele>1621.24</ele>
        <time>2018-08-23T07:27:33Z</time>
      </trkpt>
      <trkpt lat="45.0559" lon="5.96066">
        <ele>1624.89</ele>
        <time>2018-08-23T07:27:59Z</time>
      </trkpt>
      <trkpt lat="45.05602" lon="5.96047">
        <ele>1629.89</ele>
        <time>2018-08-23T07:28:38Z</time>
      </trkpt>
      <trkpt lat="45.05611" lon="5.96024">
        <ele>1635.03</ele>
        <time>2018-08-23T07:28:59Z</time>
      </trkpt>
      <trkpt lat="45.05619" lon="5.96001">
        <ele>1636.7</ele>
        <time>2018-08-23T07:29:28Z</time>
      </trkpt>
      <trkpt lat="45.0563" lon="5.9598">
        <ele>1640.97</ele>
        <time>2018-08-23T07:29:51Z</time>
      </trkpt>
      <trkpt lat="45.05628" lon="5.95954">
        <ele>1645.26</ele>
        <time>2018-08-23T07:30:12Z</time>
      </trkpt>
      <trkpt lat="45.05635" lon="5.9593">
        <ele>1649.57</ele>
        <time>2018-08-23T07:30:38Z</time>
      </trkpt>
      <trkpt lat="45.05633" lon="5.95905">
        <ele>1655.4</ele>
        <time>2018-08-23T07:31:00Z</time>
      </trkpt>
      <trkpt lat="45.05634" lon="5.95879">
        <ele>1659.71</ele>
        <time>2018-08-23T07:31:23Z</time>
      </trkpt>
      <trkpt lat="45.05634" lon="5.95852">
        <ele>1664.38</ele>
        <time>2018-08-23T07:31:39Z</time>
      </trkpt>
      <trkpt lat="45.05631" lon="5.95826">
        <ele>1669.53</ele>
        <time>2018-08-23T07:31:57Z</time>
      </trkpt>
      <trkpt lat="45.05635" lon="5.95801">
        <ele>1674.21</ele>
        <time>2018-08-23T07:32:13Z</time>
      </trkpt>
      <trkpt lat="45.0563" lon="5.95776">
        <ele>1677.14</ele>
        <time>2018-08-23T07:32:29Z</time>
      </trkpt>
      <trkpt lat="45.05621" lon="5.95754">
        <ele>1678.87</ele>
        <time>2018-08-23T07:32:50Z</time>
      </trkpt>
      <trkpt lat="45.05622" lon="5.95728">
        <ele>1679.47</ele>
        <time>2018-08-23T07:33:04Z</time>
      </trkpt>
      <trkpt lat="45.05617" lon="5.95702">
        <ele>1679.03</ele>
        <time>2018-08-23T07:33:22Z</time>
      </trkpt>
      <trkpt lat="45.05614" lon="5.95675">
        <ele>1678.66</ele>
        <time>2018-08-23T07:33:33Z</time>
      </trkpt>
      <trkpt lat="45.05609" lon="5.95649">
        <ele>1681.91</ele>
        <time>2018-08-23T07:33:54Z</time>
      </trkpt>
      <trkpt lat="45.0561" lon="5.95622">
        <ele>1682.65</ele>
        <time>2018-08-23T07:34:17Z</time>
      </trkpt>
      <trkpt lat="45.05608" lon="5.95595">
        <ele>1685.44</ele>
        <time>2018-08-23T07:34:43Z</time>
      </trkpt>
      <trkpt lat="45.05608" lon="5.95569">
        <ele>1684.5</ele>
        <time>2018-08-23T07:35:04Z</time>
      </trkpt>
      <trkpt lat="45.05625" lon="5.95578">
        <ele>1684.95</ele>
        <time>2018-08-23T07:35:26Z</time>
      </trkpt>
      <trkpt lat="45.05643" lon="5.95571">
        <ele>1685.37</ele>
        <time>2018-08-23T07:35:46Z</time>
      </trkpt>
      <trkpt lat="45.05653" lon="5.95549">
        <ele>1684.66</ele>
        <time>2018-08-23T07:36:13Z</time>
      </trkpt>
      <trkpt lat="45.0567" lon="5.95535">
        <ele>1684.34</ele>
        <time>2018-08-23T07:36:59Z</time>
      </trkpt>
      <trkpt lat="45.05677" lon="5.95512">
        <ele>1690.02</ele>
        <time>2018-08-23T07:37:23Z</time>
      </trkpt>
      <trkpt lat="45.05687" lon="5.9549">
        <ele>1693.68</ele>
        <time>2018-08-23T07:37:44Z</time>
      </trkpt>
      <trkpt lat="45.05704" lon="5.9548">
        <ele>1697.14</ele>
        <time>2018-08-23T07:38:12Z</time>
      </trkpt>
      <trkpt lat="45.05717" lon="5.95461">
        <ele>1696.68</ele>
        <time>2018-08-23T07:38:27Z</time>
      </trkpt>
      <trkpt lat="45.05722" lon="5.95435">
        <ele>1691.22</ele>
        <time>2018-08-23T07:38:52Z</time>
      </trkpt>
      <trkpt lat="45.05737" lon="5.95418">
        <ele>1698.58</ele>
        <time>2018-08-23T07:39:25Z</time>
      </trkpt>
      <trkpt lat="45.05738" lon="5.95393">
        <ele>1713.13</ele>
        <time>2018-08-23T07:40:07Z</time>
      </trkpt>
      <trkpt lat="45.05756" lon="5.95387">
        <ele>1734.77</ele>
        <time>2018-08-23T07:40:53Z</time>
      </trkpt>
      <trkpt lat="45.05754" lon="5.95361">
        <ele>1747.65</ele>
        <time>2018-08-23T07:41:42Z</time>
      </trkpt>
      <trkpt lat="45.0577" lon="5.95348">
        <ele>1749.5</ele>
        <time>2018-08-23T07:42:37Z</time>
      </trkpt>
      <trkpt lat="45.05787" lon="5.95361">
        <ele>1755.15</ele>
        <time>2018-08-23T07:43:00Z</time>
      </trkpt>
      <trkpt lat="45.05804" lon="5.95369">
        <ele>1757.58</ele>
        <time>2018-08-23T07:43:20Z</time>
      </trkpt>
      <trkpt lat="45.05822" lon="5.95368">
        <ele>1775.03</ele>
        <time>2018-08-23T07:44:31Z</time>
      </trkpt>
      <trkpt lat="45.05827" lon="5.95343">
        <ele>1783.13</ele>
        <time>2018-08-23T07:45:36Z</time>
      </trkpt>
      <trkpt lat="45.05843" lon="5.95354">
        <ele>1786.63</ele>
        <time>2018-08-23T07:46:05Z</time>
      </trkpt>
      <trkpt lat="45.05851" lon="5.95329">
        <ele>1794.9</ele>
        <time>2018-08-23T07:47:09Z</time>
      </trkpt>
      <trkpt lat="45.05842" lon="5.95307">
        <ele>1802</ele>
        <time>2018-08-23T07:47:39Z</time>
      </trkpt>
      <trkpt lat="45.05843" lon="5.9528">
        <ele>1806.08</ele>
        <time>2018-08-23T07:48:06Z</time>
      </trkpt>
      <trkpt lat="45.0584" lon="5.95254">
        <ele>1806.93</ele>
        <time>2018-08-23T07:48:37Z</time>
      </trkpt>
      <trkpt lat="45.05828" lon="5.95236">
        <ele>1810.17</ele>
        <time>2018-08-23T07:49:01Z</time>
      </trkpt>
      <trkpt lat="45.05816" lon="5.95214">
        <ele>1818.04</ele>
        <time>2018-08-23T07:49:39Z</time>
      </trkpt>
      <trkpt lat="45.05818" lon="5.95189">
        <ele>1824.23</ele>
        <time>2018-08-23T07:50:15Z</time>
      </trkpt>
      <trkpt lat="45.0582" lon="5.95163">
        <ele>1833.05</ele>
        <time>2018-08-23T07:50:51Z</time>
      </trkpt>
      <trkpt lat="45.05837" lon="5.95171">
        <ele>1838.74</ele>
        <time>2018-08-23T07:51:32Z</time>
      </trkpt>
      <trkpt lat="45.05855" lon="5.95176">
        <ele>1841</ele>
        <time>2018-08-23T07:52:07Z</time>
      </trkpt>
      <trkpt lat="45.05873" lon="5.95185">
        <ele>1844.75</ele>
        <time>2018-08-23T07:52:41Z</time>
      </trkpt>
      <trkpt lat="45.05891" lon="5.95187">
        <ele>1853.44</ele>
        <time>2018-08-23T07:53:17Z</time>
      </trkpt>
      <trkpt lat="45.05886" lon="5.95162">
        <ele>1859.13</ele>
        <time>2018-08-23T07:53:45Z</time>
      </trkpt>
      <trkpt lat="45.05877" lon="5.9514">
        <ele>1861.72</ele>
        <time>2018-08-23T07:54:31Z</time>
      </trkpt>
      <trkpt lat="45.0586" lon="5.95127">
        <ele>1862.53</ele>
        <time>2018-08-23T07:54:59Z</time>
      </trkpt>
      <trkpt lat="45.05845" lon="5.95112">
        <ele>1863.55</ele>
        <time>2018-08-23T07:55:26Z</time>
      </trkpt>
      <trkpt lat="45.05841" lon="5.95086">
        <ele>1873.94</ele>
        <time>2018-08-23T07:56:05Z</time>
      </trkpt>
      <trkpt lat="45.05825" lon="5.95073">
        <ele>1878.9</ele>
        <time>2018-08-23T07:56:40Z</time>
      </trkpt>
      <trkpt lat="45.05819" lon="5.95048">
        <ele>1885.22</ele>
        <time>2018-08-23T07:57:16Z</time>
      </trkpt>
      <trkpt lat="45.05812" lon="5.95025">
        <ele>1893.29</ele>
        <time>2018-08-23T07:58:20Z</time>
      </trkpt>
      <trkpt lat="45.05811" lon="5.94999">
        <ele>1899.01</ele>
        <time>2018-08-23T07:59:09Z</time>
      </trkpt>
      <trkpt lat="45.0581" lon="5.94973">
        <ele>1903.53</ele>
        <time>2018-08-23T07:59:38Z</time>
      </trkpt>
      <trkpt lat="45.05828" lon="5.94966">
        <ele>1911.28</ele>
        <time>2018-08-23T08:00:27Z</time>
      </trkpt>
      <trkpt lat="45.05835" lon="5.94943">
        <ele>1921.51</ele>
        <time>2018-08-23T08:01:22Z</time>
      </trkpt>
      <trkpt lat="45.05826" lon="5.94921">
        <ele>1925.82</ele>
        <time>2018-08-23T08:02:02Z</time>
      </trkpt>
      <trkpt lat="45.05815" lon="5.94899">
        <ele>1929.24</ele>
        <time>2018-08-23T08:02:27Z</time>
      </trkpt>
      <trkpt lat="45.05806" lon="5.94877">
        <ele>1931.02</ele>
        <time>2018-08-23T08:02:44Z</time>
      </trkpt>
      <trkpt lat="45.05803" lon="5.94851">
        <ele>1935.24</ele>
        <time>2018-08-23T08:03:16Z</time>
      </trkpt>
      <trkpt lat="45.05795" lon="5.94827">
        <ele>1939.4</ele>
        <time>2018-08-23T08:03:36Z</time>
      </trkpt>
      <trkpt lat="45.05787" lon="5.94803">
        <ele>1945.14</ele>
        <time>2018-08-23T08:04:01Z</time>
      </trkpt>
      <trkpt lat="45.05777" lon="5.94781">
        <ele>1950.21</ele>
        <time>2018-08-23T08:06:19Z</time>
      </trkpt>
      <trkpt lat="45.05761" lon="5.94768">
        <ele>1950.6</ele>
        <time>2018-08-23T08:06:42Z</time>
      </trkpt>
      <trkpt lat="45.05751" lon="5.94747">
        <ele>1952.49</ele>
        <time>2018-08-23T08:07:07Z</time>
      </trkpt>
      <trkpt lat="45.05754" lon="5.94721">
        <ele>1954.07</ele>
        <time>2018-08-23T08:07:24Z</time>
      </trkpt>
      <trkpt lat="45.05763" lon="5.94697">
        <ele>1956.61</ele>
        <time>2018-08-23T08:07:44Z</time>
      </trkpt>
      <trkpt lat="45.05773" lon="5.94677">
        <ele>1958.39</ele>
        <time>2018-08-23T08:08:09Z</time>
      </trkpt>
      <trkpt lat="45.05778" lon="5.94652">
        <ele>1962.43</ele>
        <time>2018-08-23T08:08:37Z</time>
      </trkpt>
      <trkpt lat="45.05785" lon="5.94627">
        <ele>1966.79</ele>
        <time>2018-08-23T08:09:02Z</time>
      </trkpt>
      <trkpt lat="45.05789" lon="5.94601">
        <ele>1972.8</ele>
        <time>2018-08-23T08:09:31Z</time>
      </trkpt>
      <trkpt lat="45.05784" lon="5.94576">
        <ele>1977.13</ele>
        <time>2018-08-23T08:10:03Z</time>
      </trkpt>
      <trkpt lat="45.05776" lon="5.94552">
        <ele>1982.75</ele>
        <time>2018-08-23T08:10:33Z</time>
      </trkpt>
      <trkpt lat="45.05762" lon="5.94537">
        <ele>1986.98</ele>
        <time>2018-08-23T08:11:01Z</time>
      </trkpt>
      <trkpt lat="45.05744" lon="5.94533">
        <ele>1987.36</ele>
        <time>2018-08-23T08:11:24Z</time>
      </trkpt>
      <trkpt lat="45.05733" lon="5.94512">
        <ele>1988.14</ele>
        <time>2018-08-23T08:11:45Z</time>
      </trkpt>
      <trkpt lat="45.05725" lon="5.94488">
        <ele>1989.69</ele>
        <time>2018-08-23T08:12:03Z</time>
      </trkpt>
      <trkpt lat="45.05737" lon="5.94465">
        <ele>1992.21</ele>
        <time>2018-08-23T08:12:18Z</time>
      </trkpt>
      <trkpt lat="45.05734" lon="5.94439">
        <ele>1995.76</ele>
        <time>2018-08-23T08:12:38Z</time>
      </trkpt>
      <trkpt lat="45.05727" lon="5.94416">
        <ele>1996.65</ele>
        <time>2018-08-23T08:12:57Z</time>
      </trkpt>
      <trkpt lat="45.0572" lon="5.94392">
        <ele>1996.8</ele>
        <time>2018-08-23T08:13:11Z</time>
      </trkpt>
      <trkpt lat="45.05719" lon="5.94365">
        <ele>1997.8</ele>
        <time>2018-08-23T08:13:32Z</time>
      </trkpt>
      <trkpt lat="45.05705" lon="5.94348">
        <ele>1998.44</ele>
        <time>2018-08-23T08:13:54Z</time>
      </trkpt>
      <trkpt lat="45.05703" lon="5.94323">
        <ele>2000.92</ele>
        <time>2018-08-23T08:14:37Z</time>
      </trkpt>
      <trkpt lat="45.05702" lon="5.94296">
        <ele>2006.24</ele>
        <time>2018-08-23T08:14:56Z</time>
      </trkpt>
      <trkpt lat="45.05707" lon="5.94271">
        <ele>2008.89</ele>
        <time>2018-08-23T08:15:12Z</time>
      </trkpt>
      <trkpt lat="45.05716" lon="5.94248">
        <ele>2009.93</ele>
        <time>2018-08-23T08:15:27Z</time>
      </trkpt>
      <trkpt lat="45.05724" lon="5.94224">
        <ele>2010.31</ele>
        <time>2018-08-23T08:15:43Z</time>
      </trkpt>
      <trkpt lat="45.05736" lon="5.94203">
        <ele>2010.85</ele>
        <time>2018-08-23T08:15:56Z</time>
      </trkpt>
      <trkpt lat="45.05744" lon="5.94178">
        <ele>2011.59</ele>
        <time>2018-08-23T08:16:13Z</time>
      </trkpt>
      <trkpt lat="45.05741" lon="5.94153">
        <ele>2011.73</ele>
        <time>2018-08-23T08:16:34Z</time>
      </trkpt>
      <trkpt lat="45.05726" lon="5.94139">
        <ele>2011.64</ele>
        <time>2018-08-23T08:16:57Z</time>
      </trkpt>
      <trkpt lat="45.05712" lon="5.94121">
        <ele>2013.86</ele>
        <time>2018-08-23T08:17:30Z</time>
      </trkpt>
      <trkpt lat="45.05701" lon="5.94099">
        <ele>2015.32</ele>
        <time>2018-08-23T08:17:50Z</time>
      </trkpt>
      <trkpt lat="45.05689" lon="5.94079">
        <ele>2015.49</ele>
        <time>2018-08-23T08:18:10Z</time>
      </trkpt>
      <trkpt lat="45.05673" lon="5.94065">
        <ele>2017.04</ele>
        <time>2018-08-23T08:18:35Z</time>
      </trkpt>
      <trkpt lat="45.05663" lon="5.94042">
        <ele>2017.5</ele>
        <time>2018-08-23T08:18:50Z</time>
      </trkpt>
      <trkpt lat="45.05651" lon="5.94021">
        <ele>2018.14</ele>
        <time>2018-08-23T08:19:08Z</time>
      </trkpt>
      <trkpt lat="45.05645" lon="5.93997">
        <ele>2017.83</ele>
        <time>2018-08-23T08:19:23Z</time>
      </trkpt>
      <trkpt lat="45.05635" lon="5.93976">
        <ele>2016.24</ele>
        <time>2018-08-23T08:19:39Z</time>
      </trkpt>
      <trkpt lat="45.05617" lon="5.93966">
        <ele>2014.39</ele>
        <time>2018-08-23T08:19:59Z</time>
      </trkpt>
      <trkpt lat="45.05602" lon="5.93949">
        <ele>2015.63</ele>
        <time>2018-08-23T08:20:16Z</time>
      </trkpt>
      <trkpt lat="45.05588" lon="5.93933">
        <ele>2015.27</ele>
        <time>2018-08-23T08:20:32Z</time>
      </trkpt>
      <trkpt lat="45.05574" lon="5.93915">
        <ele>2014</ele>
        <time>2018-08-23T08:20:49Z</time>
      </trkpt>
      <trkpt lat="45.05559" lon="5.93899">
        <ele>2015.56</ele>
        <time>2018-08-23T08:21:06Z</time>
      </trkpt>
      <trkpt lat="45.05546" lon="5.9388">
        <ele>2018.16</ele>
        <time>2018-08-23T08:21:20Z</time>
      </trkpt>
      <trkpt lat="45.05534" lon="5.93859">
        <ele>2022.15</ele>
        <time>2018-08-23T08:21:36Z</time>
      </trkpt>
      <trkpt lat="45.05524" lon="5.93838">
        <ele>2025.38</ele>
        <time>2018-08-23T08:21:52Z</time>
      </trkpt>
      <trkpt lat="45.05518" lon="5.93813">
        <ele>2028.42</ele>
        <time>2018-08-23T08:22:08Z</time>
      </trkpt>
      <trkpt lat="45.05515" lon="5.93786">
        <ele>2030.82</ele>
        <time>2018-08-23T08:22:23Z</time>
      </trkpt>
      <trkpt lat="45.05509" lon="5.9376">
        <ele>2032.89</ele>
        <time>2018-08-23T08:22:38Z</time>
      </trkpt>
      <trkpt lat="45.05503" lon="5.93736">
        <ele>2034.67</ele>
        <time>2018-08-23T08:22:55Z</time>
      </trkpt>
      <trkpt lat="45.05496" lon="5.93711">
        <ele>2036.61</ele>
        <time>2018-08-23T08:23:08Z</time>
      </trkpt>
      <trkpt lat="45.0549" lon="5.93685">
        <ele>2039.24</ele>
        <time>2018-08-23T08:23:24Z</time>
      </trkpt>
      <trkpt lat="45.05485" lon="5.9366">
        <ele>2040.9</ele>
        <time>2018-08-23T08:23:39Z</time>
      </trkpt>
      <trkpt lat="45.05476" lon="5.93637">
        <ele>2041.57</ele>
        <time>2018-08-23T08:23:56Z</time>
      </trkpt>
      <trkpt lat="45.05477" lon="5.93612">
        <ele>2042.25</ele>
        <time>2018-08-23T08:24:13Z</time>
      </trkpt>
      <trkpt lat="45.05479" lon="5.93586">
        <ele>2042.09</ele>
        <time>2018-08-23T08:24:27Z</time>
      </trkpt>
      <trkpt lat="45.05474" lon="5.9356">
        <ele>2042.71</ele>
        <time>2018-08-23T08:24:44Z</time>
      </trkpt>
      <trkpt lat="45.0547" lon="5.93534">
        <ele>2043.25</ele>
        <time>2018-08-23T08:24:58Z</time>
      </trkpt>
      <trkpt lat="45.05471" lon="5.93507">
        <ele>2044.72</ele>
        <time>2018-08-23T08:25:20Z</time>
      </trkpt>
      <trkpt lat="45.05467" lon="5.93481">
        <ele>2044.84</ele>
        <time>2018-08-23T08:25:34Z</time>
      </trkpt>
      <trkpt lat="45.0546" lon="5.93458">
        <ele>2045.18</ele>
        <time>2018-08-23T08:25:50Z</time>
      </trkpt>
      <trkpt lat="45.05452" lon="5.93434">
        <ele>2044.84</ele>
        <time>2018-08-23T08:26:15Z</time>
      </trkpt>
      <trkpt lat="45.05442" lon="5.93413">
        <ele>2044.49</ele>
        <time>2018-08-23T08:26:41Z</time>
      </trkpt>
      <trkpt lat="45.05434" lon="5.93389">
        <ele>2044.48</ele>
        <time>2018-08-23T08:26:56Z</time>
      </trkpt>
      <trkpt lat="45.05424" lon="5.93367">
        <ele>2043.62</ele>
        <time>2018-08-23T08:27:13Z</time>
      </trkpt>
      <trkpt lat="45.05414" lon="5.93344">
        <ele>2043.33</ele>
        <time>2018-08-23T08:27:29Z</time>
      </trkpt>
      <trkpt lat="45.05406" lon="5.9332">
        <ele>2043.53</ele>
        <time>2018-08-23T08:27:45Z</time>
      </trkpt>
      <trkpt lat="45.05392" lon="5.93301">
        <ele>2044.43</ele>
        <time>2018-08-23T08:28:03Z</time>
      </trkpt>
      <trkpt lat="45.05383" lon="5.93277">
        <ele>2044.87</ele>
        <time>2018-08-23T08:28:18Z</time>
      </trkpt>
      <trkpt lat="45.05377" lon="5.93253">
        <ele>2045.15</ele>
        <time>2018-08-23T08:28:35Z</time>
      </trkpt>
      <trkpt lat="45.05369" lon="5.93228">
        <ele>2046.2</ele>
        <time>2018-08-23T08:28:54Z</time>
      </trkpt>
      <trkpt lat="45.05364" lon="5.93203">
        <ele>2047.16</ele>
        <time>2018-08-23T08:29:09Z</time>
      </trkpt>
      <trkpt lat="45.05359" lon="5.93176">
        <ele>2048.24</ele>
        <time>2018-08-23T08:29:25Z</time>
      </trkpt>
      <trkpt lat="45.05349" lon="5.93152">
        <ele>2050.34</ele>
        <time>2018-08-23T08:29:48Z</time>
      </trkpt>
      <trkpt lat="45.05338" lon="5.93132">
        <ele>2051.77</ele>
        <time>2018-08-23T08:30:06Z</time>
      </trkpt>
      <trkpt lat="45.05323" lon="5.93117">
        <ele>2053.41</ele>
        <time>2018-08-23T08:30:23Z</time>
      </trkpt>
      <trkpt lat="45.05311" lon="5.93097">
        <ele>2056.09</ele>
        <time>2018-08-23T08:30:41Z</time>
      </trkpt>
      <trkpt lat="45.05298" lon="5.93077">
        <ele>2058.28</ele>
        <time>2018-08-23T08:30:56Z</time>
      </trkpt>
      <trkpt lat="45.05296" lon="5.93051">
        <ele>2060.29</ele>
        <time>2018-08-23T08:31:12Z</time>
      </trkpt>
      <trkpt lat="45.05304" lon="5.93029">
        <ele>2062.63</ele>
        <time>2018-08-23T08:31:30Z</time>
      </trkpt>
      <trkpt lat="45.05309" lon="5.93003">
        <ele>2065.65</ele>
        <time>2018-08-23T08:31:46Z</time>
      </trkpt>
      <trkpt lat="45.05311" lon="5.92977">
        <ele>2069.04</ele>
        <time>2018-08-23T08:32:04Z</time>
      </trkpt>
      <trkpt lat="45.0531" lon="5.92951">
        <ele>2071.24</ele>
        <time>2018-08-23T08:32:24Z</time>
      </trkpt>
      <trkpt lat="45.05292" lon="5.92941">
        <ele>2072.79</ele>
        <time>2018-08-23T08:32:47Z</time>
      </trkpt>
      <trkpt lat="45.05274" lon="5.92938">
        <ele>2073.67</ele>
        <time>2018-08-23T08:33:01Z</time>
      </trkpt>
      <trkpt lat="45.05257" lon="5.92927">
        <ele>2075.78</ele>
        <time>2018-08-23T08:33:19Z</time>
      </trkpt>
      <trkpt lat="45.05252" lon="5.92902">
        <ele>2078.29</ele>
        <time>2018-08-23T08:33:35Z</time>
      </trkpt>
      <trkpt lat="45.05251" lon="5.92876">
        <ele>2080.34</ele>
        <time>2018-08-23T08:33:53Z</time>
      </trkpt>
      <trkpt lat="45.05248" lon="5.9285">
        <ele>2081.33</ele>
        <time>2018-08-23T08:34:17Z</time>
      </trkpt>
      <trkpt lat="45.05245" lon="5.92824">
        <ele>2082.72</ele>
        <time>2018-08-23T08:34:34Z</time>
      </trkpt>
      <trkpt lat="45.05241" lon="5.92798">
        <ele>2084.59</ele>
        <time>2018-08-23T08:34:51Z</time>
      </trkpt>
      <trkpt lat="45.05235" lon="5.92773">
        <ele>2085.72</ele>
        <time>2018-08-23T08:35:08Z</time>
      </trkpt>
      <trkpt lat="45.05226" lon="5.9275">
        <ele>2087.13</ele>
        <time>2018-08-23T08:35:20Z</time>
      </trkpt>
      <trkpt lat="45.05219" lon="5.92726">
        <ele>2088.55</ele>
        <time>2018-08-23T08:35:40Z</time>
      </trkpt>
      <trkpt lat="45.05211" lon="5.927">
        <ele>2089.26</ele>
        <time>2018-08-23T08:36:14Z</time>
      </trkpt>
      <trkpt lat="45.05201" lon="5.92677">
        <ele>2089.33</ele>
        <time>2018-08-23T08:36:35Z</time>
      </trkpt>
      <trkpt lat="45.05184" lon="5.92667">
        <ele>2098.89</ele>
        <time>2018-08-23T08:38:01Z</time>
      </trkpt>
      <trkpt lat="45.05179" lon="5.92641">
        <ele>2100.89</ele>
        <time>2018-08-23T08:38:18Z</time>
      </trkpt>
      <trkpt lat="45.05174" lon="5.92616">
        <ele>2103.79</ele>
        <time>2018-08-23T08:38:47Z</time>
      </trkpt>
      <trkpt lat="45.05156" lon="5.92606">
        <ele>2106.28</ele>
        <time>2018-08-23T08:39:04Z</time>
      </trkpt>
      <trkpt lat="45.05137" lon="5.92604">
        <ele>2109.07</ele>
        <time>2018-08-23T08:39:28Z</time>
      </trkpt>
      <trkpt lat="45.05131" lon="5.92579">
        <ele>2110.74</ele>
        <time>2018-08-23T08:39:51Z</time>
      </trkpt>
      <trkpt lat="45.05127" lon="5.92554">
        <ele>2111.88</ele>
        <time>2018-08-23T08:40:06Z</time>
      </trkpt>
      <trkpt lat="45.05137" lon="5.92533">
        <ele>2111.88</ele>
        <time>2018-08-23T08:40:21Z</time>
      </trkpt>
      <trkpt lat="45.05147" lon="5.92511">
        <ele>2110.99</ele>
        <time>2018-08-23T08:40:36Z</time>
      </trkpt>
      <trkpt lat="45.05151" lon="5.92485">
        <ele>2109.27</ele>
        <time>2018-08-23T08:40:54Z</time>
      </trkpt>
      <trkpt lat="45.05154" lon="5.92459">
        <ele>2106.95</ele>
        <time>2018-08-23T08:41:11Z</time>
      </trkpt>
      <trkpt lat="45.05155" lon="5.92433">
        <ele>2105.27</ele>
        <time>2018-08-23T08:41:25Z</time>
      </trkpt>
      <trkpt lat="45.05154" lon="5.92407">
        <ele>2105.59</ele>
        <time>2018-08-23T08:41:55Z</time>
      </trkpt>
      <trkpt lat="45.05135" lon="5.9241">
        <ele>2106.12</ele>
        <time>2018-08-23T08:43:04Z</time>
      </trkpt>
      <trkpt lat="45.05119" lon="5.92424">
        <ele>2107.22</ele>
        <time>2018-08-23T08:43:19Z</time>
      </trkpt>
      <trkpt lat="45.05108" lon="5.92445">
        <ele>2107.12</ele>
        <time>2018-08-23T08:43:56Z</time>
      </trkpt>
      <trkpt lat="45.05094" lon="5.92461">
        <ele>2111.11</ele>
        <time>2018-08-23T08:44:22Z</time>
      </trkpt>
      <trkpt lat="45.05086" lon="5.92484">
        <ele>2118.92</ele>
        <time>2018-08-23T08:44:53Z</time>
      </trkpt>
      <trkpt lat="45.05077" lon="5.92507">
        <ele>2124.8</ele>
        <time>2018-08-23T08:45:40Z</time>
      </trkpt>
      <trkpt lat="45.0507" lon="5.92532">
        <ele>2128.6</ele>
        <time>2018-08-23T08:46:14Z</time>
      </trkpt>
      <trkpt lat="45.05059" lon="5.92555">
        <ele>2134.33</ele>
        <time>2018-08-23T08:46:53Z</time>
      </trkpt>
      <trkpt lat="45.0505" lon="5.92578">
        <ele>2137.76</ele>
        <time>2018-08-23T08:47:16Z</time>
      </trkpt>
      <trkpt lat="45.05051" lon="5.92605">
        <ele>2141.75</ele>
        <time>2018-08-23T08:47:43Z</time>
      </trkpt>
      <trkpt lat="45.05061" lon="5.92626">
        <ele>2145.79</ele>
        <time>2018-08-23T08:48:13Z</time>
      </trkpt>
      <trkpt lat="45.05058" lon="5.92652">
        <ele>2155.46</ele>
        <time>2018-08-23T08:48:55Z</time>
      </trkpt>
      <trkpt lat="45.0504" lon="5.92654">
        <ele>2168.12</ele>
        <time>2018-08-23T08:50:07Z</time>
      </trkpt>
      <trkpt lat="45.05022" lon="5.92649">
        <ele>2173.03</ele>
        <time>2018-08-23T08:50:29Z</time>
      </trkpt>
      <trkpt lat="45.05004" lon="5.92646">
        <ele>2179.66</ele>
        <time>2018-08-23T08:50:55Z</time>
      </trkpt>
      <trkpt lat="45.04989" lon="5.92661">
        <ele>2187.34</ele>
        <time>2018-08-23T08:51:36Z</time>
      </trkpt>
      <trkpt lat="45.04971" lon="5.92665">
        <ele>2205.52</ele>
        <time>2018-08-23T08:53:05Z</time>
      </trkpt>
      <trkpt lat="45.04955" lon="5.92653">
        <ele>2214.3</ele>
        <time>2018-08-23T08:54:05Z</time>
      </trkpt>
      <trkpt lat="45.0494" lon="5.92637">
        <ele>2222.91</ele>
        <time>2018-08-23T08:55:08Z</time>
      </trkpt>
      <trkpt lat="45.04923" lon="5.92628">
        <ele>2228.17</ele>
        <time>2018-08-23T08:55:38Z</time>
      </trkpt>
      <trkpt lat="45.04906" lon="5.92633">
        <ele>2234.95</ele>
        <time>2018-08-23T08:56:10Z</time>
      </trkpt>
      <trkpt lat="45.04888" lon="5.92641">
        <ele>2245.49</ele>
        <time>2018-08-23T08:56:58Z</time>
      </trkpt>
      <trkpt lat="45.0487" lon="5.9264">
        <ele>2252.97</ele>
        <time>2018-08-23T08:57:32Z</time>
      </trkpt>
      <trkpt lat="45.04853" lon="5.92645">
        <ele>2258.13</ele>
        <time>2018-08-23T08:58:09Z</time>
      </trkpt>
      <trkpt lat="45.04837" lon="5.92657">
        <ele>2263.09</ele>
        <time>2018-08-23T08:58:35Z</time>
      </trkpt>
      <trkpt lat="45.04819" lon="5.92663">
        <ele>2267.86</ele>
        <time>2018-08-23T08:59:09Z</time>
      </trkpt>
      <trkpt lat="45.04802" lon="5.9267">
        <ele>2279.34</ele>
        <time>2018-08-23T09:00:19Z</time>
      </trkpt>
      <trkpt lat="45.04787" lon="5.92686">
        <ele>2285.12</ele>
        <time>2018-08-23T09:01:18Z</time>
      </trkpt>
      <trkpt lat="45.04771" lon="5.92675">
        <ele>2305.34</ele>
        <time>2018-08-23T09:03:37Z</time>
      </trkpt>
      <trkpt lat="45.04754" lon="5.92664">
        <ele>2317.61</ele>
        <time>2018-08-23T09:05:11Z</time>
      </trkpt>
      <trkpt lat="45.04743" lon="5.92643">
        <ele>2325.38</ele>
        <time>2018-08-23T09:06:07Z</time>
      </trkpt>
      <trkpt lat="45.04732" lon="5.92664">
        <ele>2328.84</ele>
        <time>2018-08-23T09:07:06Z</time>
      </trkpt>
      <trkpt lat="45.04715" lon="5.92677">
        <ele>2334.36</ele>
        <time>2018-08-23T09:07:53Z</time>
      </trkpt>
      <trkpt lat="45.04698" lon="5.92681">
        <ele>2339.32</ele>
        <time>2018-08-23T09:08:26Z</time>
      </trkpt>
      <trkpt lat="45.04679" lon="5.92687">
        <ele>2345.29</ele>
        <time>2018-08-23T09:09:04Z</time>
      </trkpt>
      <trkpt lat="45.04661" lon="5.92685">
        <ele>2352.17</ele>
        <time>2018-08-23T09:09:29Z</time>
      </trkpt>
      <trkpt lat="45.04643" lon="5.9268">
        <ele>2353.22</ele>
        <time>2018-08-23T09:09:54Z</time>
      </trkpt>
      <trkpt lat="45.04625" lon="5.92673">
        <ele>2355.47</ele>
        <time>2018-08-23T09:10:44Z</time>
      </trkpt>
      <trkpt lat="45.04607" lon="5.92671">
        <ele>2363.12</ele>
        <time>2018-08-23T09:11:12Z</time>
      </trkpt>
      <trkpt lat="45.04591" lon="5.92656">
        <ele>2377.66</ele>
        <time>2018-08-23T09:12:10Z</time>
      </trkpt>
      <trkpt lat="45.04575" lon="5.92645">
        <ele>2387.22</ele>
        <time>2018-08-23T09:12:56Z</time>
      </trkpt>
      <trkpt lat="45.04564" lon="5.92625">
        <ele>2391.8</ele>
        <time>2018-08-23T09:13:48Z</time>
      </trkpt>
      <trkpt lat="45.04555" lon="5.92602">
        <ele>2398.43</ele>
        <time>2018-08-23T09:14:29Z</time>
      </trkpt>
      <trkpt lat="45.0455" lon="5.92575">
        <ele>2413.67</ele>
        <time>2018-08-23T09:15:34Z</time>
      </trkpt>
      <trkpt lat="45.04534" lon="5.92559">
        <ele>2416.67</ele>
        <time>2018-08-23T09:15:51Z</time>
      </trkpt>
      <trkpt lat="45.04527" lon="5.92536">
        <ele>2432.89</ele>
        <time>2018-08-23T09:17:17Z</time>
      </trkpt>
      <trkpt lat="45.04518" lon="5.92513">
        <ele>2435.98</ele>
        <time>2018-08-23T09:18:00Z</time>
      </trkpt>
      <trkpt lat="45.045" lon="5.92503">
        <ele>2433.6</ele>
        <time>2018-08-23T09:18:32Z</time>
      </trkpt>
      <trkpt lat="45.04501" lon="5.92477">
        <ele>2440.05</ele>
        <time>2018-08-23T09:19:25Z</time>
      </trkpt>
      <trkpt lat="45.04485" lon="5.92464">
        <ele>2449.81</ele>
        <time>2018-08-23T09:20:26Z</time>
      </trkpt>
      <trkpt lat="45.04464" lon="5.92455">
        <ele>2464.59</ele>
        <time>2018-08-23T09:21:30Z</time>
      </trkpt>
      <trkpt lat="45.04447" lon="5.92448">
        <ele>2461.53</ele>
        <time>2018-08-23T09:22:05Z</time>
      </trkpt>
      <trkpt lat="45.0444" lon="5.92422">
        <ele>2472.63</ele>
        <time>2018-08-23T09:23:03Z</time>
      </trkpt>
      <trkpt lat="45.04418" lon="5.92415">
        <ele>2484.18</ele>
        <time>2018-08-23T09:23:55Z</time>
      </trkpt>
      <trkpt lat="45.04399" lon="5.92416">
        <ele>2483.32</ele>
        <time>2018-08-23T09:24:11Z</time>
      </trkpt>
      <trkpt lat="45.04379" lon="5.92413">
        <ele>2495.9</ele>
        <time>2018-08-23T09:25:33Z</time>
      </trkpt>
      <trkpt lat="45.0436" lon="5.92413">
        <ele>2509.4</ele>
        <time>2018-08-23T09:26:26Z</time>
      </trkpt>
      <trkpt lat="45.0436" lon="5.92388">
        <ele>2538.24</ele>
        <time>2018-08-23T09:28:28Z</time>
      </trkpt>
      <trkpt lat="45.04366" lon="5.9236">
        <ele>2551.95</ele>
        <time>2018-08-23T09:30:25Z</time>
      </trkpt>
      <trkpt lat="45.04373" lon="5.92336">
        <ele>2553.4</ele>
        <time>2018-08-23T09:31:21Z</time>
      </trkpt>
      <trkpt lat="45.0436" lon="5.92317">
        <ele>2557.22</ele>
        <time>2018-08-23T09:32:19Z</time>
      </trkpt>
      <trkpt lat="45.04353" lon="5.92293">
        <ele>2577.66</ele>
        <time>2018-08-23T09:34:39Z</time>
      </trkpt>
      <trkpt lat="45.04346" lon="5.92269">
        <ele>2582.26</ele>
        <time>2018-08-23T09:35:44Z</time>
      </trkpt>
      <trkpt lat="45.04341" lon="5.92243">
        <ele>2592.3</ele>
        <time>2018-08-23T09:37:27Z</time>
      </trkpt>
      <trkpt lat="45.04329" lon="5.92224">
        <ele>2604.84</ele>
        <time>2018-08-23T09:38:42Z</time>
      </trkpt>
      <trkpt lat="45.04319" lon="5.92203">
        <ele>2620.49</ele>
        <time>2018-08-23T09:40:18Z</time>
      </trkpt>
      <trkpt lat="45.04306" lon="5.92184">
        <ele>2630.2</ele>
        <time>2018-08-23T09:41:17Z</time>
      </trkpt>
      <trkpt lat="45.04287" lon="5.92181">
        <ele>2646.03</ele>
        <time>2018-08-23T09:42:39Z</time>
      </trkpt>
      <trkpt lat="45.04269" lon="5.92178">
        <ele>2654.8</ele>
        <time>2018-08-23T09:43:36Z</time>
      </trkpt>
      <trkpt lat="45.04258" lon="5.92158">
        <ele>2666.08</ele>
        <time>2018-08-23T09:44:56Z</time>
      </trkpt>
      <trkpt lat="45.04239" lon="5.92157">
        <ele>2671.47</ele>
        <time>2018-08-23T09:45:29Z</time>
      </trkpt>
      <trkpt lat="45.04222" lon="5.92168">
        <ele>2677.48</ele>
        <time>2018-08-23T09:46:05Z</time>
      </trkpt>
      <trkpt lat="45.04204" lon="5.9217">
        <ele>2691.59</ele>
        <time>2018-08-23T09:46:45Z</time>
      </trkpt>
      <trkpt lat="45.04186" lon="5.92163">
        <ele>2701.93</ele>
        <time>2018-08-23T09:47:26Z</time>
      </trkpt>
      <trkpt lat="45.04171" lon="5.9215">
        <ele>2707.2</ele>
        <time>2018-08-23T09:48:02Z</time>
      </trkpt>
      <trkpt lat="45.04159" lon="5.9213">
        <ele>2712.76</ele>
        <time>2018-08-23T09:48:42Z</time>
      </trkpt>
      <trkpt lat="45.04149" lon="5.92108">
        <ele>2718.96</ele>
        <time>2018-08-23T09:49:14Z</time>
      </trkpt>
      <trkpt lat="45.0413" lon="5.92109">
        <ele>2722.74</ele>
        <time>2018-08-23T09:49:37Z</time>
      </trkpt>
      <trkpt lat="45.04112" lon="5.92108">
        <ele>2726.59</ele>
        <time>2018-08-23T09:50:07Z</time>
      </trkpt>
      <trkpt lat="45.04106" lon="5.92083">
        <ele>2728.16</ele>
        <time>2018-08-23T09:50:26Z</time>
      </trkpt>
      <trkpt lat="45.04095" lon="5.92063">
        <ele>2729.2</ele>
        <time>2018-08-23T09:51:10Z</time>
      </trkpt>
      <trkpt lat="45.04077" lon="5.92061">
        <ele>2734.27</ele>
        <time>2018-08-23T09:51:41Z</time>
      </trkpt>
      <trkpt lat="45.04059" lon="5.92053">
        <ele>2738.93</ele>
        <time>2018-08-23T09:52:04Z</time>
      </trkpt>
      <trkpt lat="45.04041" lon="5.92049">
        <ele>2742.65</ele>
        <time>2018-08-23T09:52:27Z</time>
      </trkpt>
      <trkpt lat="45.04022" lon="5.9205">
        <ele>2747.4</ele>
        <time>2018-08-23T09:52:49Z</time>
      </trkpt>
      <trkpt lat="45.04004" lon="5.9205">
        <ele>2749.62</ele>
        <time>2018-08-23T09:53:07Z</time>
      </trkpt>
      <trkpt lat="45.03986" lon="5.92046">
        <ele>2751.03</ele>
        <time>2018-08-23T09:53:29Z</time>
      </trkpt>
      <trkpt lat="45.03968" lon="5.92047">
        <ele>2751.42</ele>
        <time>2018-08-23T09:53:48Z</time>
      </trkpt>
      <trkpt lat="45.03961" lon="5.92071">
        <ele>2754.06</ele>
        <time>2018-08-23T09:54:22Z</time>
      </trkpt>
      <trkpt lat="45.03975" lon="5.92088">
        <ele>2754.63</ele>
        <time>2018-08-23T09:54:40Z</time>
      </trkpt>
      <trkpt lat="45.03977" lon="5.92114">
        <ele>2756.86</ele>
        <time>2018-08-23T09:55:27Z</time>
      </trkpt>
      <trkpt lat="45.0397" lon="5.92138">
        <ele>2760.36</ele>
        <time>2018-08-23T09:56:02Z</time>
      </trkpt>
      <trkpt lat="45.03959" lon="5.92159">
        <ele>2765.07</ele>
        <time>2018-08-23T09:56:36Z</time>
      </trkpt>
      <trkpt lat="45.03942" lon="5.92165">
        <ele>2772.98</ele>
        <time>2018-08-23T09:57:17Z</time>
      </trkpt>
      <trkpt lat="45.03926" lon="5.92177">
        <ele>2784.95</ele>
        <time>2018-08-23T09:58:30Z</time>
      </trkpt>
      <trkpt lat="45.0392" lon="5.92201">
        <ele>2794.5</ele>
        <time>2018-08-23T10:00:00Z</time>
      </trkpt>
      <trkpt lat="45.0391" lon="5.92223">
        <ele>2805.1</ele>
        <time>2018-08-23T10:01:11Z</time>
      </trkpt>
      <trkpt lat="45.03896" lon="5.9224">
        <ele>2817.79</ele>
        <time>2018-08-23T10:02:41Z</time>
      </trkpt>
      <trkpt lat="45.03882" lon="5.92256">
        <ele>2829.75</ele>
        <time>2018-08-23T10:03:58Z</time>
      </trkpt>
      <trkpt lat="45.03881" lon="5.92283">
        <ele>2841.45</ele>
        <time>2018-08-23T10:05:21Z</time>
      </trkpt>
      <trkpt lat="45.03891" lon="5.92305">
        <ele>2844.79</ele>
        <time>2018-08-23T10:05:46Z</time>
      </trkpt>
      <trkpt lat="45.03903" lon="5.92324">
        <ele>2847.83</ele>
        <time>2018-08-23T10:06:12Z</time>
      </trkpt>
      <trkpt lat="45.03913" lon="5.92346">
        <ele>2851.05</ele>
        <time>2018-08-23T10:06:31Z</time>
      </trkpt>
      <trkpt lat="45.03924" lon="5.92366">
        <ele>2855.34</ele>
        <time>2018-08-23T10:06:54Z</time>
      </trkpt>
      <trkpt lat="45.03935" lon="5.92388">
        <ele>2857.59</ele>
        <time>2018-08-23T10:07:13Z</time>
      </trkpt>
      <trkpt lat="45.03939" lon="5.92413">
        <ele>2858.65</ele>
        <time>2018-08-23T10:07:33Z</time>
      </trkpt>
      <trkpt lat="45.03955" lon="5.92426">
        <ele>2863.2</ele>
        <time>2018-08-23T10:08:10Z</time>
      </trkpt>
      <trkpt lat="45.03973" lon="5.92429">
        <ele>2872.21</ele>
        <time>2018-08-23T10:09:02Z</time>
      </trkpt>
      <trkpt lat="45.03988" lon="5.92443">
        <ele>2883.7</ele>
        <time>2018-08-23T10:10:41Z</time>
      </trkpt>
      <trkpt lat="45.03972" lon="5.92428">
        <ele>2869.51</ele>
        <time>2018-08-23T10:12:02Z</time>
      </trkpt>
      <trkpt lat="45.03955" lon="5.92418">
        <ele>2866.76</ele>
        <time>2018-08-23T10:12:19Z</time>
      </trkpt>
      <trkpt lat="45.0394" lon="5.92402">
        <ele>2861.28</ele>
        <time>2018-08-23T10:27:12Z</time>
      </trkpt>
      <trkpt lat="45.0393" lon="5.9238">
        <ele>2859.59</ele>
        <time>2018-08-23T10:27:31Z</time>
      </trkpt>
      <trkpt lat="45.03918" lon="5.9236">
        <ele>2858.28</ele>
        <time>2018-08-23T10:27:46Z</time>
      </trkpt>
      <trkpt lat="45.03906" lon="5.92338">
        <ele>2857.63</ele>
        <time>2018-08-23T10:28:00Z</time>
      </trkpt>
      <trkpt lat="45.03896" lon="5.92317">
        <ele>2856.52</ele>
        <time>2018-08-23T10:28:15Z</time>
      </trkpt>
      <trkpt lat="45.03885" lon="5.92296">
        <ele>2855.16</ele>
        <time>2018-08-23T10:28:35Z</time>
      </trkpt>
      <trkpt lat="45.03872" lon="5.92278">
        <ele>2852.64</ele>
        <time>2018-08-23T10:28:58Z</time>
      </trkpt>
      <trkpt lat="45.03879" lon="5.92253">
        <ele>2847.22</ele>
        <time>2018-08-23T10:31:09Z</time>
      </trkpt>
      <trkpt lat="45.03894" lon="5.92238">
        <ele>2843.72</ele>
        <time>2018-08-23T10:31:31Z</time>
      </trkpt>
      <trkpt lat="45.03902" lon="5.92215">
        <ele>2832.05</ele>
        <time>2018-08-23T10:32:09Z</time>
      </trkpt>
      <trkpt lat="45.03917" lon="5.92201">
        <ele>2819.69</ele>
        <time>2018-08-23T10:32:36Z</time>
      </trkpt>
      <trkpt lat="45.03925" lon="5.92177">
        <ele>2805.49</ele>
        <time>2018-08-23T10:33:12Z</time>
      </trkpt>
      <trkpt lat="45.03935" lon="5.92155">
        <ele>2794.12</ele>
        <time>2018-08-23T10:33:53Z</time>
      </trkpt>
      <trkpt lat="45.03953" lon="5.92151">
        <ele>2785.24</ele>
        <time>2018-08-23T10:34:22Z</time>
      </trkpt>
      <trkpt lat="45.03971" lon="5.92144">
        <ele>2780.02</ele>
        <time>2018-08-23T10:34:39Z</time>
      </trkpt>
      <trkpt lat="45.03989" lon="5.92144">
        <ele>2776.54</ele>
        <time>2018-08-23T10:34:54Z</time>
      </trkpt>
      <trkpt lat="45.04006" lon="5.92153">
        <ele>2771.78</ele>
        <time>2018-08-23T10:35:09Z</time>
      </trkpt>
      <trkpt lat="45.04025" lon="5.92157">
        <ele>2766.17</ele>
        <time>2018-08-23T10:35:26Z</time>
      </trkpt>
      <trkpt lat="45.04043" lon="5.92159">
        <ele>2761.09</ele>
        <time>2018-08-23T10:35:40Z</time>
      </trkpt>
      <trkpt lat="45.04062" lon="5.92159">
        <ele>2755.14</ele>
        <time>2018-08-23T10:36:07Z</time>
      </trkpt>
      <trkpt lat="45.04078" lon="5.92144">
        <ele>2749.31</ele>
        <time>2018-08-23T10:36:33Z</time>
      </trkpt>
      <trkpt lat="45.04096" lon="5.92152">
        <ele>2744.44</ele>
        <time>2018-08-23T10:36:51Z</time>
      </trkpt>
      <trkpt lat="45.04114" lon="5.92152">
        <ele>2739.04</ele>
        <time>2018-08-23T10:37:08Z</time>
      </trkpt>
      <trkpt lat="45.04133" lon="5.92148">
        <ele>2734.8</ele>
        <time>2018-08-23T10:37:23Z</time>
      </trkpt>
      <trkpt lat="45.04152" lon="5.92148">
        <ele>2730.29</ele>
        <time>2018-08-23T10:37:40Z</time>
      </trkpt>
      <trkpt lat="45.04169" lon="5.9216">
        <ele>2726.18</ele>
        <time>2018-08-23T10:37:59Z</time>
      </trkpt>
      <trkpt lat="45.04187" lon="5.92151">
        <ele>2724.13</ele>
        <time>2018-08-23T10:38:10Z</time>
      </trkpt>
      <trkpt lat="45.04201" lon="5.92169">
        <ele>2719.16</ele>
        <time>2018-08-23T10:38:30Z</time>
      </trkpt>
      <trkpt lat="45.0422" lon="5.92166">
        <ele>2714.34</ele>
        <time>2018-08-23T10:38:55Z</time>
      </trkpt>
      <trkpt lat="45.04238" lon="5.92165">
        <ele>2707.27</ele>
        <time>2018-08-23T10:39:22Z</time>
      </trkpt>
      <trkpt lat="45.04254" lon="5.92178">
        <ele>2698.68</ele>
        <time>2018-08-23T10:40:01Z</time>
      </trkpt>
      <trkpt lat="45.04273" lon="5.92181">
        <ele>2693.77</ele>
        <time>2018-08-23T10:40:23Z</time>
      </trkpt>
      <trkpt lat="45.04291" lon="5.92189">
        <ele>2684.5</ele>
        <time>2018-08-23T10:40:54Z</time>
      </trkpt>
      <trkpt lat="45.04309" lon="5.92186">
        <ele>2677.75</ele>
        <time>2018-08-23T10:41:12Z</time>
      </trkpt>
      <trkpt lat="45.04325" lon="5.92201">
        <ele>2667</ele>
        <time>2018-08-23T10:41:57Z</time>
      </trkpt>
      <trkpt lat="45.04339" lon="5.92218">
        <ele>2662.7</ele>
        <time>2018-08-23T10:42:23Z</time>
      </trkpt>
      <trkpt lat="45.04354" lon="5.92233">
        <ele>2645.88</ele>
        <time>2018-08-23T10:43:03Z</time>
      </trkpt>
      <trkpt lat="45.04344" lon="5.92254">
        <ele>2638.6</ele>
        <time>2018-08-23T10:43:22Z</time>
      </trkpt>
      <trkpt lat="45.04347" lon="5.92281">
        <ele>2629.12</ele>
        <time>2018-08-23T10:43:53Z</time>
      </trkpt>
      <trkpt lat="45.04351" lon="5.92306">
        <ele>2620.33</ele>
        <time>2018-08-23T10:44:36Z</time>
      </trkpt>
      <trkpt lat="45.04368" lon="5.92309">
        <ele>2609.97</ele>
        <time>2018-08-23T10:45:31Z</time>
      </trkpt>
      <trkpt lat="45.04386" lon="5.92304">
        <ele>2604.46</ele>
        <time>2018-08-23T10:46:46Z</time>
      </trkpt>
      <trkpt lat="45.04368" lon="5.9231">
        <ele>2611.32</ele>
        <time>2018-08-23T10:47:42Z</time>
      </trkpt>
      <trkpt lat="45.04368" lon="5.92336">
        <ele>2609.87</ele>
        <time>2018-08-23T10:48:14Z</time>
      </trkpt>
      <trkpt lat="45.0437" lon="5.92362">
        <ele>2604.42</ele>
        <time>2018-08-23T10:48:54Z</time>
      </trkpt>
      <trkpt lat="45.04366" lon="5.92388">
        <ele>2589.27</ele>
        <time>2018-08-23T10:49:39Z</time>
      </trkpt>
      <trkpt lat="45.04366" lon="5.92414">
        <ele>2564.74</ele>
        <time>2018-08-23T10:50:59Z</time>
      </trkpt>
      <trkpt lat="45.04384" lon="5.92426">
        <ele>2556.19</ele>
        <time>2018-08-23T10:51:27Z</time>
      </trkpt>
      <trkpt lat="45.04402" lon="5.92431">
        <ele>2551.22</ele>
        <time>2018-08-23T10:51:54Z</time>
      </trkpt>
      <trkpt lat="45.04419" lon="5.92439">
        <ele>2548.85</ele>
        <time>2018-08-23T10:52:10Z</time>
      </trkpt>
      <trkpt lat="45.04437" lon="5.92442">
        <ele>2549.03</ele>
        <time>2018-08-23T10:52:26Z</time>
      </trkpt>
      <trkpt lat="45.04449" lon="5.92462">
        <ele>2540.21</ele>
        <time>2018-08-23T10:53:05Z</time>
      </trkpt>
      <trkpt lat="45.04467" lon="5.92472">
        <ele>2530.45</ele>
        <time>2018-08-23T10:53:30Z</time>
      </trkpt>
      <trkpt lat="45.04487" lon="5.92476">
        <ele>2528.16</ele>
        <time>2018-08-23T10:53:54Z</time>
      </trkpt>
      <trkpt lat="45.04493" lon="5.925">
        <ele>2507.03</ele>
        <time>2018-08-23T10:54:38Z</time>
      </trkpt>
      <trkpt lat="45.04508" lon="5.92514">
        <ele>2486.74</ele>
        <time>2018-08-23T10:55:49Z</time>
      </trkpt>
      <trkpt lat="45.04518" lon="5.92535">
        <ele>2468.94</ele>
        <time>2018-08-23T10:56:32Z</time>
      </trkpt>
      <trkpt lat="45.04526" lon="5.9256">
        <ele>2458.5</ele>
        <time>2018-08-23T10:56:58Z</time>
      </trkpt>
      <trkpt lat="45.04541" lon="5.92576">
        <ele>2452.11</ele>
        <time>2018-08-23T10:57:20Z</time>
      </trkpt>
      <trkpt lat="45.04549" lon="5.92599">
        <ele>2445.38</ele>
        <time>2018-08-23T10:57:49Z</time>
      </trkpt>
      <trkpt lat="45.04555" lon="5.92625">
        <ele>2436.67</ele>
        <time>2018-08-23T10:58:19Z</time>
      </trkpt>
      <trkpt lat="45.04571" lon="5.9264">
        <ele>2427.47</ele>
        <time>2018-08-23T10:58:47Z</time>
      </trkpt>
      <trkpt lat="45.04585" lon="5.92656">
        <ele>2417.14</ele>
        <time>2018-08-23T10:59:15Z</time>
      </trkpt>
      <trkpt lat="45.04603" lon="5.92658">
        <ele>2410.87</ele>
        <time>2018-08-23T10:59:33Z</time>
      </trkpt>
      <trkpt lat="45.04617" lon="5.92675">
        <ele>2402.55</ele>
        <time>2018-08-23T11:00:00Z</time>
      </trkpt>
      <trkpt lat="45.04634" lon="5.92685">
        <ele>2396.57</ele>
        <time>2018-08-23T11:00:21Z</time>
      </trkpt>
      <trkpt lat="45.04652" lon="5.9269">
        <ele>2388.38</ele>
        <time>2018-08-23T11:00:59Z</time>
      </trkpt>
      <trkpt lat="45.0467" lon="5.9268">
        <ele>2376.16</ele>
        <time>2018-08-23T11:03:03Z</time>
      </trkpt>
      <trkpt lat="45.04689" lon="5.9268">
        <ele>2372.55</ele>
        <time>2018-08-23T11:03:19Z</time>
      </trkpt>
      <trkpt lat="45.04706" lon="5.92674">
        <ele>2367.42</ele>
        <time>2018-08-23T11:03:41Z</time>
      </trkpt>
      <trkpt lat="45.04724" lon="5.92671">
        <ele>2364.57</ele>
        <time>2018-08-23T11:03:56Z</time>
      </trkpt>
      <trkpt lat="45.04739" lon="5.92655">
        <ele>2361.36</ele>
        <time>2018-08-23T11:04:17Z</time>
      </trkpt>
      <trkpt lat="45.04756" lon="5.92666">
        <ele>2342.92</ele>
        <time>2018-08-23T11:05:33Z</time>
      </trkpt>
      <trkpt lat="45.04774" lon="5.92664">
        <ele>2331.28</ele>
        <time>2018-08-23T11:06:45Z</time>
      </trkpt>
      <trkpt lat="45.04763" lon="5.92685">
        <ele>2319.97</ele>
        <time>2018-08-23T11:07:38Z</time>
      </trkpt>
      <trkpt lat="45.0478" lon="5.92696">
        <ele>2311.3</ele>
        <time>2018-08-23T11:08:15Z</time>
      </trkpt>
      <trkpt lat="45.04797" lon="5.92708">
        <ele>2301.29</ele>
        <time>2018-08-23T11:08:49Z</time>
      </trkpt>
      <trkpt lat="45.04815" lon="5.92706">
        <ele>2289.21</ele>
        <time>2018-08-23T11:09:22Z</time>
      </trkpt>
      <trkpt lat="45.04832" lon="5.92697">
        <ele>2280.64</ele>
        <time>2018-08-23T11:09:46Z</time>
      </trkpt>
      <trkpt lat="45.04848" lon="5.92686">
        <ele>2265.84</ele>
        <time>2018-08-23T11:10:28Z</time>
      </trkpt>
      <trkpt lat="45.04866" lon="5.92678">
        <ele>2258.14</ele>
        <time>2018-08-23T11:10:57Z</time>
      </trkpt>
      <trkpt lat="45.04884" lon="5.9268">
        <ele>2253.7</ele>
        <time>2018-08-23T11:11:11Z</time>
      </trkpt>
      <trkpt lat="45.04902" lon="5.92674">
        <ele>2245.31</ele>
        <time>2018-08-23T11:11:37Z</time>
      </trkpt>
      <trkpt lat="45.0492" lon="5.92675">
        <ele>2235.78</ele>
        <time>2018-08-23T11:12:14Z</time>
      </trkpt>
      <trkpt lat="45.04937" lon="5.92683">
        <ele>2228.24</ele>
        <time>2018-08-23T11:12:44Z</time>
      </trkpt>
      <trkpt lat="45.04956" lon="5.92684">
        <ele>2223.36</ele>
        <time>2018-08-23T11:13:00Z</time>
      </trkpt>
      <trkpt lat="45.04974" lon="5.9268">
        <ele>2212.98</ele>
        <time>2018-08-23T11:13:51Z</time>
      </trkpt>
      <trkpt lat="45.04992" lon="5.92682">
        <ele>2199.89</ele>
        <time>2018-08-23T11:15:07Z</time>
      </trkpt>
      <trkpt lat="45.05005" lon="5.92699">
        <ele>2194.07</ele>
        <time>2018-08-23T11:15:38Z</time>
      </trkpt>
      <trkpt lat="45.05015" lon="5.92721">
        <ele>2185.22</ele>
        <time>2018-08-23T11:16:19Z</time>
      </trkpt>
      <trkpt lat="45.05033" lon="5.92723">
        <ele>2177.63</ele>
        <time>2018-08-23T11:16:44Z</time>
      </trkpt>
      <trkpt lat="45.05051" lon="5.92734">
        <ele>2172.23</ele>
        <time>2018-08-23T11:17:00Z</time>
      </trkpt>
      <trkpt lat="45.05063" lon="5.92753">
        <ele>2167.71</ele>
        <time>2018-08-23T11:17:16Z</time>
      </trkpt>
      <trkpt lat="45.05082" lon="5.92754">
        <ele>2161.61</ele>
        <time>2018-08-23T11:17:37Z</time>
      </trkpt>
      <trkpt lat="45.051" lon="5.92754">
        <ele>2153.57</ele>
        <time>2018-08-23T11:18:03Z</time>
      </trkpt>
      <trkpt lat="45.05119" lon="5.92758">
        <ele>2148.7</ele>
        <time>2018-08-23T11:18:19Z</time>
      </trkpt>
      <trkpt lat="45.05137" lon="5.92758">
        <ele>2145.06</ele>
        <time>2018-08-23T11:18:35Z</time>
      </trkpt>
      <trkpt lat="45.05154" lon="5.92769">
        <ele>2143.13</ele>
        <time>2018-08-23T11:18:53Z</time>
      </trkpt>
      <trkpt lat="45.05162" lon="5.92746">
        <ele>2134.19</ele>
        <time>2018-08-23T11:19:30Z</time>
      </trkpt>
      <trkpt lat="45.05171" lon="5.92721">
        <ele>2128.41</ele>
        <time>2018-08-23T11:19:59Z</time>
      </trkpt>
      <trkpt lat="45.05176" lon="5.92696">
        <ele>2123.36</ele>
        <time>2018-08-23T11:20:20Z</time>
      </trkpt>
      <trkpt lat="45.05182" lon="5.92672">
        <ele>2116.52</ele>
        <time>2018-08-23T11:20:45Z</time>
      </trkpt>
      <trkpt lat="45.05199" lon="5.92662">
        <ele>2098.23</ele>
        <time>2018-08-23T11:21:49Z</time>
      </trkpt>
      <trkpt lat="45.05213" lon="5.92646">
        <ele>2093.87</ele>
        <time>2018-08-23T11:22:08Z</time>
      </trkpt>
      <trkpt lat="45.05223" lon="5.92624">
        <ele>2088.86</ele>
        <time>2018-08-23T11:22:27Z</time>
      </trkpt>
      <trkpt lat="45.05222" lon="5.92597">
        <ele>2083.21</ele>
        <time>2018-08-23T11:22:49Z</time>
      </trkpt>
      <trkpt lat="45.05238" lon="5.92582">
        <ele>2078.08</ele>
        <time>2018-08-23T11:23:13Z</time>
      </trkpt>
      <trkpt lat="45.05255" lon="5.92573">
        <ele>2074.13</ele>
        <time>2018-08-23T11:23:33Z</time>
      </trkpt>
      <trkpt lat="45.05268" lon="5.9259">
        <ele>2069.25</ele>
        <time>2018-08-23T11:23:51Z</time>
      </trkpt>
      <trkpt lat="45.05279" lon="5.92612">
        <ele>2066.14</ele>
        <time>2018-08-23T11:24:07Z</time>
      </trkpt>
      <trkpt lat="45.05288" lon="5.92635">
        <ele>2063.49</ele>
        <time>2018-08-23T11:24:20Z</time>
      </trkpt>
      <trkpt lat="45.05297" lon="5.9266">
        <ele>2061.6</ele>
        <time>2018-08-23T11:24:39Z</time>
      </trkpt>
      <trkpt lat="45.05313" lon="5.92672">
        <ele>2059.75</ele>
        <time>2018-08-23T11:24:53Z</time>
      </trkpt>
      <trkpt lat="45.05329" lon="5.92687">
        <ele>2058.61</ele>
        <time>2018-08-23T11:25:11Z</time>
      </trkpt>
      <trkpt lat="45.05343" lon="5.92704">
        <ele>2057.58</ele>
        <time>2018-08-23T11:25:33Z</time>
      </trkpt>
      <trkpt lat="45.05355" lon="5.92723">
        <ele>2057.35</ele>
        <time>2018-08-23T11:25:48Z</time>
      </trkpt>
      <trkpt lat="45.05363" lon="5.92747">
        <ele>2056.35</ele>
        <time>2018-08-23T11:26:07Z</time>
      </trkpt>
      <trkpt lat="45.05376" lon="5.92767">
        <ele>2056.35</ele>
        <time>2018-08-23T11:26:25Z</time>
      </trkpt>
      <trkpt lat="45.05391" lon="5.92783">
        <ele>2056.56</ele>
        <time>2018-08-23T11:26:38Z</time>
      </trkpt>
      <trkpt lat="45.05407" lon="5.928">
        <ele>2056.25</ele>
        <time>2018-08-23T11:26:57Z</time>
      </trkpt>
      <trkpt lat="45.05421" lon="5.92816">
        <ele>2055.35</ele>
        <time>2018-08-23T11:27:11Z</time>
      </trkpt>
      <trkpt lat="45.05431" lon="5.92839">
        <ele>2055.58</ele>
        <time>2018-08-23T11:27:27Z</time>
      </trkpt>
      <trkpt lat="45.05428" lon="5.92865">
        <ele>2056.46</ele>
        <time>2018-08-23T11:27:42Z</time>
      </trkpt>
      <trkpt lat="45.05443" lon="5.92881">
        <ele>2057.68</ele>
        <time>2018-08-23T11:28:00Z</time>
      </trkpt>
      <trkpt lat="45.05452" lon="5.92904">
        <ele>2058.3</ele>
        <time>2018-08-23T11:28:16Z</time>
      </trkpt>
      <trkpt lat="45.05463" lon="5.92925">
        <ele>2059.18</ele>
        <time>2018-08-23T11:28:31Z</time>
      </trkpt>
      <trkpt lat="45.05478" lon="5.92942">
        <ele>2059.75</ele>
        <time>2018-08-23T11:28:45Z</time>
      </trkpt>
      <trkpt lat="45.05488" lon="5.92966">
        <ele>2060.03</ele>
        <time>2018-08-23T11:29:02Z</time>
      </trkpt>
      <trkpt lat="45.05504" lon="5.92982">
        <ele>2058.77</ele>
        <time>2018-08-23T11:29:18Z</time>
      </trkpt>
      <trkpt lat="45.05517" lon="5.93">
        <ele>2056.76</ele>
        <time>2018-08-23T11:29:34Z</time>
      </trkpt>
      <trkpt lat="45.05533" lon="5.93015">
        <ele>2055.32</ele>
        <time>2018-08-23T11:29:50Z</time>
      </trkpt>
      <trkpt lat="45.05547" lon="5.93034">
        <ele>2055.21</ele>
        <time>2018-08-23T11:30:06Z</time>
      </trkpt>
      <trkpt lat="45.05559" lon="5.93053">
        <ele>2056.07</ele>
        <time>2018-08-23T11:30:22Z</time>
      </trkpt>
      <trkpt lat="45.05569" lon="5.93074">
        <ele>2057.37</ele>
        <time>2018-08-23T11:30:37Z</time>
      </trkpt>
      <trkpt lat="45.05573" lon="5.93099">
        <ele>2058.22</ele>
        <time>2018-08-23T11:30:56Z</time>
      </trkpt>
      <trkpt lat="45.05582" lon="5.93122">
        <ele>2057.56</ele>
        <time>2018-08-23T11:31:20Z</time>
      </trkpt>
      <trkpt lat="45.05594" lon="5.93141">
        <ele>2056.02</ele>
        <time>2018-08-23T11:31:39Z</time>
      </trkpt>
      <trkpt lat="45.05602" lon="5.93165">
        <ele>2057.17</ele>
        <time>2018-08-23T11:32:22Z</time>
      </trkpt>
      <trkpt lat="45.05619" lon="5.93174">
        <ele>2057.42</ele>
        <time>2018-08-23T11:32:40Z</time>
      </trkpt>
      <trkpt lat="45.05634" lon="5.93189">
        <ele>2057.86</ele>
        <time>2018-08-23T11:33:01Z</time>
      </trkpt>
      <trkpt lat="45.05652" lon="5.93197">
        <ele>2056.55</ele>
        <time>2018-08-23T11:33:22Z</time>
      </trkpt>
      <trkpt lat="45.05667" lon="5.93215">
        <ele>2056.51</ele>
        <time>2018-08-23T11:33:38Z</time>
      </trkpt>
      <trkpt lat="45.05683" lon="5.93228">
        <ele>2056.29</ele>
        <time>2018-08-23T11:34:02Z</time>
      </trkpt>
      <trkpt lat="45.05699" lon="5.9324">
        <ele>2055.42</ele>
        <time>2018-08-23T11:34:26Z</time>
      </trkpt>
      <trkpt lat="45.05705" lon="5.93265">
        <ele>2057.35</ele>
        <time>2018-08-23T11:34:42Z</time>
      </trkpt>
      <trkpt lat="45.05713" lon="5.93288">
        <ele>2060.21</ele>
        <time>2018-08-23T11:35:01Z</time>
      </trkpt>
      <trkpt lat="45.0573" lon="5.93296">
        <ele>2064.4</ele>
        <time>2018-08-23T11:37:23Z</time>
      </trkpt>
      <trkpt lat="45.05736" lon="5.9332">
        <ele>2066.51</ele>
        <time>2018-08-23T11:37:48Z</time>
      </trkpt>
      <trkpt lat="45.0574" lon="5.93347">
        <ele>2070.16</ele>
        <time>2018-08-23T11:38:13Z</time>
      </trkpt>
      <trkpt lat="45.05744" lon="5.93372">
        <ele>2074.14</ele>
        <time>2018-08-23T11:38:35Z</time>
      </trkpt>
      <trkpt lat="45.05761" lon="5.93385">
        <ele>2076.95</ele>
        <time>2018-08-23T11:38:50Z</time>
      </trkpt>
      <trkpt lat="45.05778" lon="5.93394">
        <ele>2080.51</ele>
        <time>2018-08-23T11:39:07Z</time>
      </trkpt>
      <trkpt lat="45.05796" lon="5.93402">
        <ele>2083.11</ele>
        <time>2018-08-23T11:39:24Z</time>
      </trkpt>
      <trkpt lat="45.05815" lon="5.93407">
        <ele>2084.17</ele>
        <time>2018-08-23T11:39:58Z</time>
      </trkpt>
      <trkpt lat="45.05829" lon="5.93422">
        <ele>2084.15</ele>
        <time>2018-08-23T11:40:13Z</time>
      </trkpt>
      <trkpt lat="45.05847" lon="5.93436">
        <ele>2085.53</ele>
        <time>2018-08-23T11:40:24Z</time>
      </trkpt>
      <trkpt lat="45.0586" lon="5.93455">
        <ele>2086.81</ele>
        <time>2018-08-23T11:40:43Z</time>
      </trkpt>
      <trkpt lat="45.05867" lon="5.93479">
        <ele>2086.81</ele>
        <time>2018-08-23T11:41:04Z</time>
      </trkpt>
      <trkpt lat="45.05884" lon="5.93491">
        <ele>2088.11</ele>
        <time>2018-08-23T11:41:19Z</time>
      </trkpt>
      <trkpt lat="45.05901" lon="5.93498">
        <ele>2090.9</ele>
        <time>2018-08-23T11:41:42Z</time>
      </trkpt>
      <trkpt lat="45.05917" lon="5.9351">
        <ele>2093.45</ele>
        <time>2018-08-23T11:41:57Z</time>
      </trkpt>
      <trkpt lat="45.05929" lon="5.93532">
        <ele>2095.98</ele>
        <time>2018-08-23T11:42:14Z</time>
      </trkpt>
      <trkpt lat="45.0594" lon="5.93551">
        <ele>2096.44</ele>
        <time>2018-08-23T11:42:28Z</time>
      </trkpt>
      <trkpt lat="45.05954" lon="5.93569">
        <ele>2096.83</ele>
        <time>2018-08-23T11:42:47Z</time>
      </trkpt>
      <trkpt lat="45.05967" lon="5.93587">
        <ele>2096.99</ele>
        <time>2018-08-23T11:42:59Z</time>
      </trkpt>
      <trkpt lat="45.0598" lon="5.93607">
        <ele>2097.11</ele>
        <time>2018-08-23T11:43:17Z</time>
      </trkpt>
      <trkpt lat="45.05996" lon="5.93619">
        <ele>2097.6</ele>
        <time>2018-08-23T11:43:33Z</time>
      </trkpt>
      <trkpt lat="45.06012" lon="5.93635">
        <ele>2097.51</ele>
        <time>2018-08-23T11:43:49Z</time>
      </trkpt>
      <trkpt lat="45.06025" lon="5.93654">
        <ele>2097.48</ele>
        <time>2018-08-23T11:44:12Z</time>
      </trkpt>
      <trkpt lat="45.06036" lon="5.93677">
        <ele>2096.62</ele>
        <time>2018-08-23T11:44:28Z</time>
      </trkpt>
      <trkpt lat="45.06049" lon="5.93696">
        <ele>2094.42</ele>
        <time>2018-08-23T11:44:49Z</time>
      </trkpt>
      <trkpt lat="45.06062" lon="5.93714">
        <ele>2088.85</ele>
        <time>2018-08-23T11:45:25Z</time>
      </trkpt>
      <trkpt lat="45.0608" lon="5.93717">
        <ele>2086.6</ele>
        <time>2018-08-23T11:45:36Z</time>
      </trkpt>
      <trkpt lat="45.061" lon="5.93715">
        <ele>2082.29</ele>
        <time>2018-08-23T11:45:58Z</time>
      </trkpt>
      <trkpt lat="45.06119" lon="5.93715">
        <ele>2076.95</ele>
        <time>2018-08-23T11:46:28Z</time>
      </trkpt>
      <trkpt lat="45.06135" lon="5.93727">
        <ele>2074.48</ele>
        <time>2018-08-23T11:46:42Z</time>
      </trkpt>
      <trkpt lat="45.06152" lon="5.93738">
        <ele>2070.43</ele>
        <time>2018-08-23T11:47:03Z</time>
      </trkpt>
      <trkpt lat="45.06171" lon="5.93741">
        <ele>2066.3</ele>
        <time>2018-08-23T11:47:24Z</time>
      </trkpt>
      <trkpt lat="45.0619" lon="5.93742">
        <ele>2061.71</ele>
        <time>2018-08-23T11:47:45Z</time>
      </trkpt>
      <trkpt lat="45.06208" lon="5.93737">
        <ele>2058.92</ele>
        <time>2018-08-23T11:48:00Z</time>
      </trkpt>
      <trkpt lat="45.06226" lon="5.93743">
        <ele>2056.65</ele>
        <time>2018-08-23T11:48:13Z</time>
      </trkpt>
      <trkpt lat="45.06244" lon="5.93742">
        <ele>2052.23</ele>
        <time>2018-08-23T11:48:31Z</time>
      </trkpt>
      <trkpt lat="45.06262" lon="5.93749">
        <ele>2047.91</ele>
        <time>2018-08-23T11:48:50Z</time>
      </trkpt>
      <trkpt lat="45.06281" lon="5.93753">
        <ele>2046.49</ele>
        <time>2018-08-23T11:49:05Z</time>
      </trkpt>
      <trkpt lat="45.063" lon="5.9375">
        <ele>2046.28</ele>
        <time>2018-08-23T11:49:17Z</time>
      </trkpt>
      <trkpt lat="45.06321" lon="5.93751">
        <ele>2047.14</ele>
        <time>2018-08-23T11:49:36Z</time>
      </trkpt>
      <trkpt lat="45.06339" lon="5.93752">
        <ele>2047.39</ele>
        <time>2018-08-23T11:49:52Z</time>
      </trkpt>
      <trkpt lat="45.06356" lon="5.93742">
        <ele>2047.45</ele>
        <time>2018-08-23T11:50:11Z</time>
      </trkpt>
      <trkpt lat="45.06375" lon="5.93742">
        <ele>2047.35</ele>
        <time>2018-08-23T11:50:27Z</time>
      </trkpt>
      <trkpt lat="45.06393" lon="5.93738">
        <ele>2047.28</ele>
        <time>2018-08-23T11:50:49Z</time>
      </trkpt>
      <trkpt lat="45.0641" lon="5.93749">
        <ele>2048.7</ele>
        <time>2018-08-23T11:51:18Z</time>
      </trkpt>
      <trkpt lat="45.06428" lon="5.93759">
        <ele>2049.46</ele>
        <time>2018-08-23T11:51:40Z</time>
      </trkpt>
      <trkpt lat="45.06447" lon="5.93768">
        <ele>2050.18</ele>
        <time>2018-08-23T11:51:53Z</time>
      </trkpt>
      <trkpt lat="45.06465" lon="5.93763">
        <ele>2052</ele>
        <time>2018-08-23T11:52:22Z</time>
      </trkpt>
      <trkpt lat="45.0648" lon="5.93779">
        <ele>2052.89</ele>
        <time>2018-08-23T11:52:44Z</time>
      </trkpt>
      <trkpt lat="45.06491" lon="5.93799">
        <ele>2055.73</ele>
        <time>2018-08-23T11:53:18Z</time>
      </trkpt>
      <trkpt lat="45.06507" lon="5.93813">
        <ele>2059.66</ele>
        <time>2018-08-23T11:53:54Z</time>
      </trkpt>
      <trkpt lat="45.06525" lon="5.93822">
        <ele>2062.23</ele>
        <time>2018-08-23T11:54:12Z</time>
      </trkpt>
      <trkpt lat="45.06539" lon="5.93838">
        <ele>2067.88</ele>
        <time>2018-08-23T11:54:52Z</time>
      </trkpt>
      <trkpt lat="45.06557" lon="5.93844">
        <ele>2072.49</ele>
        <time>2018-08-23T11:55:18Z</time>
      </trkpt>
      <trkpt lat="45.06575" lon="5.93848">
        <ele>2074.47</ele>
        <time>2018-08-23T11:55:46Z</time>
      </trkpt>
      <trkpt lat="45.0659" lon="5.93863">
        <ele>2079.82</ele>
        <time>2018-08-23T11:56:18Z</time>
      </trkpt>
      <trkpt lat="45.06605" lon="5.93878">
        <ele>2083.11</ele>
        <time>2018-08-23T11:56:37Z</time>
      </trkpt>
      <trkpt lat="45.06624" lon="5.93882">
        <ele>2089.64</ele>
        <time>2018-08-23T11:57:14Z</time>
      </trkpt>
      <trkpt lat="45.06639" lon="5.93896">
        <ele>2092.42</ele>
        <time>2018-08-23T11:57:34Z</time>
      </trkpt>
      <trkpt lat="45.06656" lon="5.93908">
        <ele>2094.83</ele>
        <time>2018-08-23T11:58:01Z</time>
      </trkpt>
      <trkpt lat="45.06675" lon="5.93908">
        <ele>2099.21</ele>
        <time>2018-08-23T11:58:36Z</time>
      </trkpt>
      <trkpt lat="45.06691" lon="5.93921">
        <ele>2101.3</ele>
        <time>2018-08-23T11:58:52Z</time>
      </trkpt>
      <trkpt lat="45.06708" lon="5.93934">
        <ele>2105.35</ele>
        <time>2018-08-23T11:59:15Z</time>
      </trkpt>
      <trkpt lat="45.06724" lon="5.93946">
        <ele>2107.43</ele>
        <time>2018-08-23T11:59:30Z</time>
      </trkpt>
      <trkpt lat="45.06745" lon="5.93943">
        <ele>2109.02</ele>
        <time>2018-08-23T11:59:57Z</time>
      </trkpt>
      <trkpt lat="45.06764" lon="5.93947">
        <ele>2110.81</ele>
        <time>2018-08-23T12:00:21Z</time>
      </trkpt>
      <trkpt lat="45.06782" lon="5.93946">
        <ele>2111.43</ele>
        <time>2018-08-23T12:00:36Z</time>
      </trkpt>
      <trkpt lat="45.06801" lon="5.93946">
        <ele>2111.65</ele>
        <time>2018-08-23T12:00:53Z</time>
      </trkpt>
      <trkpt lat="45.06819" lon="5.93943">
        <ele>2112.16</ele>
        <time>2018-08-23T12:01:09Z</time>
      </trkpt>
      <trkpt lat="45.06839" lon="5.93945">
        <ele>2111.35</ele>
        <time>2018-08-23T12:01:19Z</time>
      </trkpt>
      <trkpt lat="45.06859" lon="5.93948">
        <ele>2111.11</ele>
        <time>2018-08-23T12:01:35Z</time>
      </trkpt>
      <trkpt lat="45.06878" lon="5.93952">
        <ele>2110.48</ele>
        <time>2018-08-23T12:01:47Z</time>
      </trkpt>
      <trkpt lat="45.06896" lon="5.93955">
        <ele>2109.14</ele>
        <time>2018-08-23T12:02:16Z</time>
      </trkpt>
      <trkpt lat="45.06915" lon="5.93956">
        <ele>2109.26</ele>
        <time>2018-08-23T12:02:32Z</time>
      </trkpt>
      <trkpt lat="45.06934" lon="5.93966">
        <ele>2109.11</ele>
        <time>2018-08-23T12:02:46Z</time>
      </trkpt>
      <trkpt lat="45.06949" lon="5.9398">
        <ele>2108.96</ele>
        <time>2018-08-23T12:03:10Z</time>
      </trkpt>
      <trkpt lat="45.06968" lon="5.9398">
        <ele>2109.73</ele>
        <time>2018-08-23T12:03:31Z</time>
      </trkpt>
      <trkpt lat="45.06987" lon="5.93978">
        <ele>2111.5</ele>
        <time>2018-08-23T12:03:58Z</time>
      </trkpt>
      <trkpt lat="45.07006" lon="5.93978">
        <ele>2111.5</ele>
        <time>2018-08-23T12:04:07Z</time>
      </trkpt>
      <trkpt lat="45.07023" lon="5.93983">
        <ele>2111.8</ele>
        <time>2018-08-23T12:04:39Z</time>
      </trkpt>
      <trkpt lat="45.0704" lon="5.93971">
        <ele>2110.42</ele>
        <time>2018-08-23T12:04:58Z</time>
      </trkpt>
      <trkpt lat="45.07059" lon="5.93963">
        <ele>2109.68</ele>
        <time>2018-08-23T12:05:09Z</time>
      </trkpt>
      <trkpt lat="45.07077" lon="5.93965">
        <ele>2108.65</ele>
        <time>2018-08-23T12:05:24Z</time>
      </trkpt>
      <trkpt lat="45.07096" lon="5.93965">
        <ele>2109.26</ele>
        <time>2018-08-23T12:05:37Z</time>
      </trkpt>
      <trkpt lat="45.07114" lon="5.9396">
        <ele>2110.09</ele>
        <time>2018-08-23T12:05:53Z</time>
      </trkpt>
      <trkpt lat="45.07133" lon="5.9396">
        <ele>2109.83</ele>
        <time>2018-08-23T12:06:09Z</time>
      </trkpt>
      <trkpt lat="45.0715" lon="5.93971">
        <ele>2109.95</ele>
        <time>2018-08-23T12:06:26Z</time>
      </trkpt>
      <trkpt lat="45.07168" lon="5.93977">
        <ele>2111.79</ele>
        <time>2018-08-23T12:06:55Z</time>
      </trkpt>
      <trkpt lat="45.07186" lon="5.93983">
        <ele>2111.99</ele>
        <time>2018-08-23T12:07:12Z</time>
      </trkpt>
      <trkpt lat="45.07205" lon="5.93986">
        <ele>2112.76</ele>
        <time>2018-08-23T12:07:26Z</time>
      </trkpt>
      <trkpt lat="45.07223" lon="5.93991">
        <ele>2112.77</ele>
        <time>2018-08-23T12:07:48Z</time>
      </trkpt>
      <trkpt lat="45.07241" lon="5.93998">
        <ele>2114.91</ele>
        <time>2018-08-23T12:08:14Z</time>
      </trkpt>
      <trkpt lat="45.0726" lon="5.93995">
        <ele>2120.54</ele>
        <time>2018-08-23T12:08:53Z</time>
      </trkpt>
      <trkpt lat="45.07277" lon="5.93983">
        <ele>2123.8</ele>
        <time>2018-08-23T12:09:12Z</time>
      </trkpt>
      <trkpt lat="45.07295" lon="5.93974">
        <ele>2125.92</ele>
        <time>2018-08-23T12:09:28Z</time>
      </trkpt>
      <trkpt lat="45.07314" lon="5.9397">
        <ele>2126.58</ele>
        <time>2018-08-23T12:09:47Z</time>
      </trkpt>
      <trkpt lat="45.07331" lon="5.93961">
        <ele>2127.44</ele>
        <time>2018-08-23T12:10:06Z</time>
      </trkpt>
      <trkpt lat="45.07348" lon="5.93952">
        <ele>2127.88</ele>
        <time>2018-08-23T12:10:22Z</time>
      </trkpt>
      <trkpt lat="45.07366" lon="5.93958">
        <ele>2126.91</ele>
        <time>2018-08-23T12:10:35Z</time>
      </trkpt>
      <trkpt lat="45.07383" lon="5.93968">
        <ele>2124.66</ele>
        <time>2018-08-23T12:10:53Z</time>
      </trkpt>
      <trkpt lat="45.07402" lon="5.93975">
        <ele>2122.4</ele>
        <time>2018-08-23T12:11:13Z</time>
      </trkpt>
      <trkpt lat="45.07419" lon="5.93985">
        <ele>2122.52</ele>
        <time>2018-08-23T12:11:32Z</time>
      </trkpt>
      <trkpt lat="45.07438" lon="5.93986">
        <ele>2123.29</ele>
        <time>2018-08-23T12:11:52Z</time>
      </trkpt>
      <trkpt lat="45.07456" lon="5.9398">
        <ele>2124.05</ele>
        <time>2018-08-23T12:12:08Z</time>
      </trkpt>
      <trkpt lat="45.07475" lon="5.93979">
        <ele>2123.48</ele>
        <time>2018-08-23T12:12:23Z</time>
      </trkpt>
      <trkpt lat="45.07494" lon="5.93983">
        <ele>2123.45</ele>
        <time>2018-08-23T12:12:38Z</time>
      </trkpt>
      <trkpt lat="45.07512" lon="5.93978">
        <ele>2123.24</ele>
        <time>2018-08-23T12:12:56Z</time>
      </trkpt>
      <trkpt lat="45.0753" lon="5.93987">
        <ele>2124.04</ele>
        <time>2018-08-23T12:13:22Z</time>
      </trkpt>
      <trkpt lat="45.07548" lon="5.93996">
        <ele>2124.24</ele>
        <time>2018-08-23T12:13:38Z</time>
      </trkpt>
      <trkpt lat="45.07564" lon="5.9401">
        <ele>2123.24</ele>
        <time>2018-08-23T12:14:00Z</time>
      </trkpt>
      <trkpt lat="45.07581" lon="5.94021">
        <ele>2124.29</ele>
        <time>2018-08-23T12:14:12Z</time>
      </trkpt>
      <trkpt lat="45.07598" lon="5.94028">
        <ele>2124.26</ele>
        <time>2018-08-23T12:14:26Z</time>
      </trkpt>
      <trkpt lat="45.07617" lon="5.94034">
        <ele>2123.33</ele>
        <time>2018-08-23T12:14:45Z</time>
      </trkpt>
      <trkpt lat="45.07632" lon="5.94048">
        <ele>2122.68</ele>
        <time>2018-08-23T12:14:59Z</time>
      </trkpt>
      <trkpt lat="45.07648" lon="5.94062">
        <ele>2121.26</ele>
        <time>2018-08-23T12:15:17Z</time>
      </trkpt>
      <trkpt lat="45.07666" lon="5.94072">
        <ele>2120.7</ele>
        <time>2018-08-23T12:15:38Z</time>
      </trkpt>
      <trkpt lat="45.07684" lon="5.94081">
        <ele>2122.59</ele>
        <time>2018-08-23T12:15:59Z</time>
      </trkpt>
      <trkpt lat="45.07701" lon="5.94088">
        <ele>2124.02</ele>
        <time>2018-08-23T12:16:16Z</time>
      </trkpt>
      <trkpt lat="45.07715" lon="5.94104">
        <ele>2123.84</ele>
        <time>2018-08-23T12:16:34Z</time>
      </trkpt>
      <trkpt lat="45.07726" lon="5.94128">
        <ele>2123.98</ele>
        <time>2018-08-23T12:16:52Z</time>
      </trkpt>
      <trkpt lat="45.07741" lon="5.94142">
        <ele>2124.15</ele>
        <time>2018-08-23T12:17:10Z</time>
      </trkpt>
      <trkpt lat="45.07758" lon="5.94153">
        <ele>2123.25</ele>
        <time>2018-08-23T12:17:30Z</time>
      </trkpt>
      <trkpt lat="45.07777" lon="5.94159">
        <ele>2123.65</ele>
        <time>2018-08-23T12:17:50Z</time>
      </trkpt>
      <trkpt lat="45.07794" lon="5.9417">
        <ele>2126.13</ele>
        <time>2018-08-23T12:18:10Z</time>
      </trkpt>
      <trkpt lat="45.07812" lon="5.94177">
        <ele>2127.65</ele>
        <time>2018-08-23T12:18:29Z</time>
      </trkpt>
      <trkpt lat="45.07826" lon="5.94193">
        <ele>2128.91</ele>
        <time>2018-08-23T12:18:51Z</time>
      </trkpt>
      <trkpt lat="45.07844" lon="5.94203">
        <ele>2130.17</ele>
        <time>2018-08-23T12:19:07Z</time>
      </trkpt>
      <trkpt lat="45.0786" lon="5.94217">
        <ele>2128.99</ele>
        <time>2018-08-23T12:19:29Z</time>
      </trkpt>
      <trkpt lat="45.07875" lon="5.94232">
        <ele>2127.64</ele>
        <time>2018-08-23T12:19:43Z</time>
      </trkpt>
      <trkpt lat="45.07886" lon="5.94253">
        <ele>2127.8</ele>
        <time>2018-08-23T12:20:05Z</time>
      </trkpt>
      <trkpt lat="45.07899" lon="5.94272">
        <ele>2129.01</ele>
        <time>2018-08-23T12:20:23Z</time>
      </trkpt>
      <trkpt lat="45.07912" lon="5.94291">
        <ele>2131.13</ele>
        <time>2018-08-23T12:20:47Z</time>
      </trkpt>
      <trkpt lat="45.07926" lon="5.94308">
        <ele>2132.62</ele>
        <time>2018-08-23T12:21:06Z</time>
      </trkpt>
      <trkpt lat="45.07942" lon="5.9432">
        <ele>2133.12</ele>
        <time>2018-08-23T12:21:23Z</time>
      </trkpt>
      <trkpt lat="45.07956" lon="5.94339">
        <ele>2134.12</ele>
        <time>2018-08-23T12:21:38Z</time>
      </trkpt>
      <trkpt lat="45.07967" lon="5.94362">
        <ele>2137.18</ele>
        <time>2018-08-23T12:22:04Z</time>
      </trkpt>
      <trkpt lat="45.07983" lon="5.94376">
        <ele>2138.15</ele>
        <time>2018-08-23T12:22:26Z</time>
      </trkpt>
      <trkpt lat="45.08001" lon="5.9437">
        <ele>2139.54</ele>
        <time>2018-08-23T12:22:54Z</time>
      </trkpt>
      <trkpt lat="45.08018" lon="5.94364">
        <ele>2141.53</ele>
        <time>2018-08-23T12:23:13Z</time>
      </trkpt>
      <trkpt lat="45.08037" lon="5.9436">
        <ele>2144.76</ele>
        <time>2018-08-23T12:23:40Z</time>
      </trkpt>
      <trkpt lat="45.08055" lon="5.94362">
        <ele>2145.22</ele>
        <time>2018-08-23T12:24:02Z</time>
      </trkpt>
      <trkpt lat="45.08071" lon="5.94378">
        <ele>2149.36</ele>
        <time>2018-08-23T12:24:32Z</time>
      </trkpt>
      <trkpt lat="45.08089" lon="5.94375">
        <ele>2154.25</ele>
        <time>2018-08-23T12:24:59Z</time>
      </trkpt>
      <trkpt lat="45.08108" lon="5.94377">
        <ele>2158.71</ele>
        <time>2018-08-23T12:25:32Z</time>
      </trkpt>
      <trkpt lat="45.08125" lon="5.94386">
        <ele>2159.84</ele>
        <time>2018-08-23T12:25:54Z</time>
      </trkpt>
      <trkpt lat="45.08135" lon="5.94407">
        <ele>2161.35</ele>
        <time>2018-08-23T12:26:19Z</time>
      </trkpt>
      <trkpt lat="45.08152" lon="5.94418">
        <ele>2165.15</ele>
        <time>2018-08-23T12:26:46Z</time>
      </trkpt>
      <trkpt lat="45.08166" lon="5.94435">
        <ele>2169.69</ele>
        <time>2018-08-23T12:27:16Z</time>
      </trkpt>
      <trkpt lat="45.08184" lon="5.9444">
        <ele>2175.29</ele>
        <time>2018-08-23T12:27:46Z</time>
      </trkpt>
      <trkpt lat="45.08199" lon="5.94454">
        <ele>2179.52</ele>
        <time>2018-08-23T12:28:22Z</time>
      </trkpt>
      <trkpt lat="45.08216" lon="5.94463">
        <ele>2185.96</ele>
        <time>2018-08-23T12:29:13Z</time>
      </trkpt>
      <trkpt lat="45.08235" lon="5.94472">
        <ele>2196.68</ele>
        <time>2018-08-23T12:30:06Z</time>
      </trkpt>
      <trkpt lat="45.08244" lon="5.94494">
        <ele>2202.43</ele>
        <time>2018-08-23T12:30:40Z</time>
      </trkpt>
      <trkpt lat="45.08255" lon="5.94515">
        <ele>2209.98</ele>
        <time>2018-08-23T12:31:14Z</time>
      </trkpt>
      <trkpt lat="45.0827" lon="5.9453">
        <ele>2213.58</ele>
        <time>2018-08-23T12:31:40Z</time>
      </trkpt>
      <trkpt lat="45.08289" lon="5.94533">
        <ele>2215.28</ele>
        <time>2018-08-23T12:32:17Z</time>
      </trkpt>
      <trkpt lat="45.08307" lon="5.9454">
        <ele>2219.22</ele>
        <time>2018-08-23T12:32:41Z</time>
      </trkpt>
      <trkpt lat="45.08319" lon="5.94559">
        <ele>2222.29</ele>
        <time>2018-08-23T12:33:00Z</time>
      </trkpt>
      <trkpt lat="45.08329" lon="5.94581">
        <ele>2227.53</ele>
        <time>2018-08-23T12:33:31Z</time>
      </trkpt>
      <trkpt lat="45.08343" lon="5.94599">
        <ele>2230.24</ele>
        <time>2018-08-23T12:34:07Z</time>
      </trkpt>
      <trkpt lat="45.08343" lon="5.94625">
        <ele>2234.94</ele>
        <time>2018-08-23T12:34:32Z</time>
      </trkpt>
      <trkpt lat="45.08343" lon="5.94652">
        <ele>2241.48</ele>
        <time>2018-08-23T12:35:02Z</time>
      </trkpt>
      <trkpt lat="45.08343" lon="5.94679">
        <ele>2244.22</ele>
        <time>2018-08-23T12:35:29Z</time>
      </trkpt>
      <trkpt lat="45.0836" lon="5.94688">
        <ele>2245.09</ele>
        <time>2018-08-23T12:35:51Z</time>
      </trkpt>
      <trkpt lat="45.08376" lon="5.94702">
        <ele>2251.11</ele>
        <time>2018-08-23T12:36:28Z</time>
      </trkpt>
      <trkpt lat="45.08393" lon="5.94715">
        <ele>2259.72</ele>
        <time>2018-08-23T12:37:07Z</time>
      </trkpt>
      <trkpt lat="45.08409" lon="5.94728">
        <ele>2264.4</ele>
        <time>2018-08-23T12:37:50Z</time>
      </trkpt>
      <trkpt lat="45.08407" lon="5.94754">
        <ele>2268.85</ele>
        <time>2018-08-23T12:38:16Z</time>
      </trkpt>
      <trkpt lat="45.08415" lon="5.94778">
        <ele>2272.56</ele>
        <time>2018-08-23T12:38:41Z</time>
      </trkpt>
      <trkpt lat="45.08424" lon="5.94801">
        <ele>2278.92</ele>
        <time>2018-08-23T12:39:16Z</time>
      </trkpt>
      <trkpt lat="45.08439" lon="5.94817">
        <ele>2279.45</ele>
        <time>2018-08-23T12:39:36Z</time>
      </trkpt>
      <trkpt lat="45.08443" lon="5.94842">
        <ele>2279.34</ele>
        <time>2018-08-23T12:40:05Z</time>
      </trkpt>
      <trkpt lat="45.08461" lon="5.94836">
        <ele>2287.44</ele>
        <time>2018-08-23T12:40:42Z</time>
      </trkpt>
      <trkpt lat="45.0848" lon="5.94834">
        <ele>2292.22</ele>
        <time>2018-08-23T12:41:16Z</time>
      </trkpt>
      <trkpt lat="45.08493" lon="5.94852">
        <ele>2294.4</ele>
        <time>2018-08-23T12:41:41Z</time>
      </trkpt>
      <trkpt lat="45.08493" lon="5.94878">
        <ele>2296.88</ele>
        <time>2018-08-23T12:42:05Z</time>
      </trkpt>
      <trkpt lat="45.08502" lon="5.94901">
        <ele>2304.01</ele>
        <time>2018-08-23T12:43:21Z</time>
      </trkpt>
      <trkpt lat="45.08518" lon="5.94913">
        <ele>2309.85</ele>
        <time>2018-08-23T12:43:45Z</time>
      </trkpt>
      <trkpt lat="45.0852" lon="5.94939">
        <ele>2315.3</ele>
        <time>2018-08-23T12:44:33Z</time>
      </trkpt>
      <trkpt lat="45.08522" lon="5.94966">
        <ele>2322.23</ele>
        <time>2018-08-23T12:45:11Z</time>
      </trkpt>
      <trkpt lat="45.08535" lon="5.94984">
        <ele>2328.94</ele>
        <time>2018-08-23T12:45:51Z</time>
      </trkpt>
      <trkpt lat="45.08552" lon="5.94993">
        <ele>2335.52</ele>
        <time>2018-08-23T12:46:32Z</time>
      </trkpt>
      <trkpt lat="45.08564" lon="5.95013">
        <ele>2343.32</ele>
        <time>2018-08-23T12:47:38Z</time>
      </trkpt>
      <trkpt lat="45.08576" lon="5.95031">
        <ele>2351.39</ele>
        <time>2018-08-23T12:48:22Z</time>
      </trkpt>
      <trkpt lat="45.0859" lon="5.95049">
        <ele>2361.11</ele>
        <time>2018-08-23T12:49:20Z</time>
      </trkpt>
      <trkpt lat="45.08592" lon="5.95074">
        <ele>2365.78</ele>
        <time>2018-08-23T12:50:14Z</time>
      </trkpt>
      <trkpt lat="45.08587" lon="5.95099">
        <ele>2375.52</ele>
        <time>2018-08-23T12:50:58Z</time>
      </trkpt>
      <trkpt lat="45.08598" lon="5.9512">
        <ele>2384.71</ele>
        <time>2018-08-23T12:51:45Z</time>
      </trkpt>
      <trkpt lat="45.08612" lon="5.95136">
        <ele>2386.44</ele>
        <time>2018-08-23T12:52:19Z</time>
      </trkpt>
      <trkpt lat="45.08626" lon="5.95155">
        <ele>2386.83</ele>
        <time>2018-08-23T12:52:49Z</time>
      </trkpt>
      <trkpt lat="45.08639" lon="5.95173">
        <ele>2389.57</ele>
        <time>2018-08-23T12:53:16Z</time>
      </trkpt>
      <trkpt lat="45.08648" lon="5.95196">
        <ele>2394.46</ele>
        <time>2018-08-23T12:53:43Z</time>
      </trkpt>
      <trkpt lat="45.08656" lon="5.95219">
        <ele>2397.25</ele>
        <time>2018-08-23T12:54:15Z</time>
      </trkpt>
      <trkpt lat="45.08659" lon="5.95246">
        <ele>2399.86</ele>
        <time>2018-08-23T12:54:47Z</time>
      </trkpt>
      <trkpt lat="45.08661" lon="5.95273">
        <ele>2403.36</ele>
        <time>2018-08-23T12:55:12Z</time>
      </trkpt>
      <trkpt lat="45.08667" lon="5.95297">
        <ele>2409.17</ele>
        <time>2018-08-23T12:55:44Z</time>
      </trkpt>
      <trkpt lat="45.08671" lon="5.95322">
        <ele>2415.92</ele>
        <time>2018-08-23T12:56:03Z</time>
      </trkpt>
      <trkpt lat="45.08688" lon="5.95335">
        <ele>2418.35</ele>
        <time>2018-08-23T12:56:45Z</time>
      </trkpt>
      <trkpt lat="45.08704" lon="5.95346">
        <ele>2425.17</ele>
        <time>2018-08-23T12:57:26Z</time>
      </trkpt>
      <trkpt lat="45.08721" lon="5.95352">
        <ele>2436.09</ele>
        <time>2018-08-23T12:58:16Z</time>
      </trkpt>
      <trkpt lat="45.08739" lon="5.95356">
        <ele>2445.75</ele>
        <time>2018-08-23T12:59:28Z</time>
      </trkpt>
      <trkpt lat="45.08758" lon="5.9536">
        <ele>2450.91</ele>
        <time>2018-08-23T13:00:03Z</time>
      </trkpt>
      <trkpt lat="45.08773" lon="5.95377">
        <ele>2453.46</ele>
        <time>2018-08-23T13:00:50Z</time>
      </trkpt>
      <trkpt lat="45.08776" lon="5.95403">
        <ele>2459.34</ele>
        <time>2018-08-23T13:01:18Z</time>
      </trkpt>
      <trkpt lat="45.08783" lon="5.95428">
        <ele>2470.6</ele>
        <time>2018-08-23T13:02:25Z</time>
      </trkpt>
      <trkpt lat="45.08791" lon="5.95451">
        <ele>2477.75</ele>
        <time>2018-08-23T13:03:25Z</time>
      </trkpt>
      <trkpt lat="45.08798" lon="5.95474">
        <ele>2485.18</ele>
        <time>2018-08-23T13:04:16Z</time>
      </trkpt>
      <trkpt lat="45.08806" lon="5.95498">
        <ele>2494.34</ele>
        <time>2018-08-23T13:05:13Z</time>
      </trkpt>
      <trkpt lat="45.08811" lon="5.95525">
        <ele>2500.34</ele>
        <time>2018-08-23T13:06:00Z</time>
      </trkpt>
      <trkpt lat="45.08818" lon="5.9555">
        <ele>2507.48</ele>
        <time>2018-08-23T13:06:57Z</time>
      </trkpt>
      <trkpt lat="45.08824" lon="5.95574">
        <ele>2511.73</ele>
        <time>2018-08-23T13:07:34Z</time>
      </trkpt>
      <trkpt lat="45.08832" lon="5.95599">
        <ele>2518.19</ele>
        <time>2018-08-23T13:08:11Z</time>
      </trkpt>
      <trkpt lat="45.08845" lon="5.9562">
        <ele>2522.19</ele>
        <time>2018-08-23T13:09:05Z</time>
      </trkpt>
      <trkpt lat="45.08857" lon="5.95642">
        <ele>2527.43</ele>
        <time>2018-08-23T13:09:38Z</time>
      </trkpt>
      <trkpt lat="45.08867" lon="5.95667">
        <ele>2530.99</ele>
        <time>2018-08-23T13:10:10Z</time>
      </trkpt>
      <trkpt lat="45.08874" lon="5.95692">
        <ele>2536.35</ele>
        <time>2018-08-23T13:10:48Z</time>
      </trkpt>
      <trkpt lat="45.0888" lon="5.95717">
        <ele>2537.82</ele>
        <time>2018-08-23T13:11:08Z</time>
      </trkpt>
      <trkpt lat="45.08886" lon="5.95742">
        <ele>2536.07</ele>
        <time>2018-08-23T13:11:28Z</time>
      </trkpt>
      <trkpt lat="45.08897" lon="5.95763">
        <ele>2537.21</ele>
        <time>2018-08-23T13:11:49Z</time>
      </trkpt>
      <trkpt lat="45.08912" lon="5.95779">
        <ele>2538.06</ele>
        <time>2018-08-23T13:12:29Z</time>
      </trkpt>
      <trkpt lat="45.08926" lon="5.95796">
        <ele>2538</ele>
        <time>2018-08-23T13:12:50Z</time>
      </trkpt>
      <trkpt lat="45.08939" lon="5.95814">
        <ele>2538.33</ele>
        <time>2018-08-23T13:13:15Z</time>
      </trkpt>
      <trkpt lat="45.08955" lon="5.95829">
        <ele>2537.77</ele>
        <time>2018-08-23T13:13:41Z</time>
      </trkpt>
      <trkpt lat="45.08971" lon="5.9584">
        <ele>2536.9</ele>
        <time>2018-08-23T13:14:02Z</time>
      </trkpt>
      <trkpt lat="45.08988" lon="5.95852">
        <ele>2536.14</ele>
        <time>2018-08-23T13:14:25Z</time>
      </trkpt>
      <trkpt lat="45.08998" lon="5.95875">
        <ele>2536.97</ele>
        <time>2018-08-23T13:14:42Z</time>
      </trkpt>
      <trkpt lat="45.09012" lon="5.95892">
        <ele>2540.78</ele>
        <time>2018-08-23T13:15:08Z</time>
      </trkpt>
      <trkpt lat="45.09024" lon="5.95912">
        <ele>2543.82</ele>
        <time>2018-08-23T13:15:29Z</time>
      </trkpt>
      <trkpt lat="45.09035" lon="5.95932">
        <ele>2545.94</ele>
        <time>2018-08-23T13:15:55Z</time>
      </trkpt>
      <trkpt lat="45.09017" lon="5.95936">
        <ele>2564.15</ele>
        <time>2018-08-23T13:24:33Z</time>
      </trkpt>
      <trkpt lat="45.08999" lon="5.95937">
        <ele>2561.21</ele>
        <time>2018-08-23T13:25:01Z</time>
      </trkpt>
      <trkpt lat="45.08981" lon="5.95928">
        <ele>2557.49</ele>
        <time>2018-08-23T13:25:21Z</time>
      </trkpt>
      <trkpt lat="45.08963" lon="5.95923">
        <ele>2550.34</ele>
        <time>2018-08-23T13:25:50Z</time>
      </trkpt>
      <trkpt lat="45.08945" lon="5.95928">
        <ele>2543.96</ele>
        <time>2018-08-23T13:26:46Z</time>
      </trkpt>
      <trkpt lat="45.08927" lon="5.95934">
        <ele>2538.9</ele>
        <time>2018-08-23T13:27:07Z</time>
      </trkpt>
      <trkpt lat="45.08908" lon="5.95934">
        <ele>2535.09</ele>
        <time>2018-08-23T13:27:24Z</time>
      </trkpt>
      <trkpt lat="45.0889" lon="5.95937">
        <ele>2529.51</ele>
        <time>2018-08-23T13:27:43Z</time>
      </trkpt>
      <trkpt lat="45.08872" lon="5.95944">
        <ele>2522.34</ele>
        <time>2018-08-23T13:28:06Z</time>
      </trkpt>
      <trkpt lat="45.08853" lon="5.95946">
        <ele>2515.62</ele>
        <time>2018-08-23T13:28:29Z</time>
      </trkpt>
      <trkpt lat="45.08837" lon="5.95955">
        <ele>2510.38</ele>
        <time>2018-08-23T13:28:50Z</time>
      </trkpt>
      <trkpt lat="45.08818" lon="5.95958">
        <ele>2505.58</ele>
        <time>2018-08-23T13:29:10Z</time>
      </trkpt>
      <trkpt lat="45.088" lon="5.95956">
        <ele>2499.84</ele>
        <time>2018-08-23T13:29:27Z</time>
      </trkpt>
      <trkpt lat="45.08782" lon="5.95964">
        <ele>2494.61</ele>
        <time>2018-08-23T13:29:46Z</time>
      </trkpt>
      <trkpt lat="45.08764" lon="5.95963">
        <ele>2491.11</ele>
        <time>2018-08-23T13:29:59Z</time>
      </trkpt>
      <trkpt lat="45.08746" lon="5.95964">
        <ele>2487.48</ele>
        <time>2018-08-23T13:30:13Z</time>
      </trkpt>
      <trkpt lat="45.08727" lon="5.95958">
        <ele>2484.68</ele>
        <time>2018-08-23T13:30:26Z</time>
      </trkpt>
      <trkpt lat="45.0871" lon="5.95947">
        <ele>2481.42</ele>
        <time>2018-08-23T13:30:41Z</time>
      </trkpt>
      <trkpt lat="45.08694" lon="5.95934">
        <ele>2478.78</ele>
        <time>2018-08-23T13:30:55Z</time>
      </trkpt>
      <trkpt lat="45.08677" lon="5.95924">
        <ele>2476.7</ele>
        <time>2018-08-23T13:31:08Z</time>
      </trkpt>
      <trkpt lat="45.08663" lon="5.95906">
        <ele>2475.09</ele>
        <time>2018-08-23T13:31:20Z</time>
      </trkpt>
      <trkpt lat="45.08645" lon="5.95894">
        <ele>2473.64</ele>
        <time>2018-08-23T13:31:31Z</time>
      </trkpt>
      <trkpt lat="45.08627" lon="5.95889">
        <ele>2471.33</ele>
        <time>2018-08-23T13:31:46Z</time>
      </trkpt>
      <trkpt lat="45.0861" lon="5.95879">
        <ele>2468.43</ele>
        <time>2018-08-23T13:32:04Z</time>
      </trkpt>
      <trkpt lat="45.08594" lon="5.95867">
        <ele>2464.88</ele>
        <time>2018-08-23T13:32:30Z</time>
      </trkpt>
      <trkpt lat="45.08575" lon="5.95873">
        <ele>2461.74</ele>
        <time>2018-08-23T13:32:54Z</time>
      </trkpt>
      <trkpt lat="45.08557" lon="5.95871">
        <ele>2452.21</ele>
        <time>2018-08-23T13:33:30Z</time>
      </trkpt>
      <trkpt lat="45.08538" lon="5.95873">
        <ele>2437.11</ele>
        <time>2018-08-23T13:34:23Z</time>
      </trkpt>
      <trkpt lat="45.08522" lon="5.95885">
        <ele>2429.14</ele>
        <time>2018-08-23T13:35:01Z</time>
      </trkpt>
      <trkpt lat="45.08503" lon="5.95888">
        <ele>2424.2</ele>
        <time>2018-08-23T13:35:22Z</time>
      </trkpt>
      <trkpt lat="45.08484" lon="5.95885">
        <ele>2418.31</ele>
        <time>2018-08-23T13:35:45Z</time>
      </trkpt>
      <trkpt lat="45.08468" lon="5.95897">
        <ele>2409.57</ele>
        <time>2018-08-23T13:36:12Z</time>
      </trkpt>
      <trkpt lat="45.0845" lon="5.95893">
        <ele>2403.33</ele>
        <time>2018-08-23T13:36:32Z</time>
      </trkpt>
      <trkpt lat="45.08431" lon="5.95892">
        <ele>2396.46</ele>
        <time>2018-08-23T13:36:55Z</time>
      </trkpt>
      <trkpt lat="45.08413" lon="5.95885">
        <ele>2389.31</ele>
        <time>2018-08-23T13:37:27Z</time>
      </trkpt>
      <trkpt lat="45.08398" lon="5.95869">
        <ele>2384.02</ele>
        <time>2018-08-23T13:37:46Z</time>
      </trkpt>
      <trkpt lat="45.08381" lon="5.95858">
        <ele>2377.36</ele>
        <time>2018-08-23T13:38:14Z</time>
      </trkpt>
      <trkpt lat="45.08366" lon="5.95871">
        <ele>2373.47</ele>
        <time>2018-08-23T13:38:31Z</time>
      </trkpt>
      <trkpt lat="45.08347" lon="5.95871">
        <ele>2366.33</ele>
        <time>2018-08-23T13:38:57Z</time>
      </trkpt>
      <trkpt lat="45.0833" lon="5.95883">
        <ele>2361</ele>
        <time>2018-08-23T13:39:18Z</time>
      </trkpt>
      <trkpt lat="45.08313" lon="5.95874">
        <ele>2357.24</ele>
        <time>2018-08-23T13:39:33Z</time>
      </trkpt>
      <trkpt lat="45.08295" lon="5.95867">
        <ele>2353.37</ele>
        <time>2018-08-23T13:39:49Z</time>
      </trkpt>
      <trkpt lat="45.08277" lon="5.95864">
        <ele>2348.4</ele>
        <time>2018-08-23T13:40:15Z</time>
      </trkpt>
      <trkpt lat="45.08262" lon="5.95849">
        <ele>2344.81</ele>
        <time>2018-08-23T13:40:34Z</time>
      </trkpt>
      <trkpt lat="45.08243" lon="5.9585">
        <ele>2340.93</ele>
        <time>2018-08-23T13:40:51Z</time>
      </trkpt>
      <trkpt lat="45.08225" lon="5.95842">
        <ele>2335.01</ele>
        <time>2018-08-23T13:41:11Z</time>
      </trkpt>
      <trkpt lat="45.08211" lon="5.95826">
        <ele>2326.11</ele>
        <time>2018-08-23T13:41:40Z</time>
      </trkpt>
      <trkpt lat="45.08194" lon="5.95814">
        <ele>2319.34</ele>
        <time>2018-08-23T13:42:06Z</time>
      </trkpt>
      <trkpt lat="45.08175" lon="5.95809">
        <ele>2314.98</ele>
        <time>2018-08-23T13:42:23Z</time>
      </trkpt>
      <trkpt lat="45.0816" lon="5.95792">
        <ele>2311.38</ele>
        <time>2018-08-23T13:42:37Z</time>
      </trkpt>
      <trkpt lat="45.08149" lon="5.9577">
        <ele>2305.05</ele>
        <time>2018-08-23T13:42:59Z</time>
      </trkpt>
      <trkpt lat="45.08141" lon="5.95747">
        <ele>2300.15</ele>
        <time>2018-08-23T13:43:19Z</time>
      </trkpt>
      <trkpt lat="45.08127" lon="5.95729">
        <ele>2294.59</ele>
        <time>2018-08-23T13:43:37Z</time>
      </trkpt>
      <trkpt lat="45.08109" lon="5.95722">
        <ele>2290.41</ele>
        <time>2018-08-23T13:43:56Z</time>
      </trkpt>
      <trkpt lat="45.0809" lon="5.95714">
        <ele>2289.48</ele>
        <time>2018-08-23T13:44:11Z</time>
      </trkpt>
      <trkpt lat="45.08074" lon="5.95701">
        <ele>2288.48</ele>
        <time>2018-08-23T13:44:25Z</time>
      </trkpt>
      <trkpt lat="45.08057" lon="5.95689">
        <ele>2285.9</ele>
        <time>2018-08-23T13:44:42Z</time>
      </trkpt>
      <trkpt lat="45.0804" lon="5.9568">
        <ele>2282.81</ele>
        <time>2018-08-23T13:44:56Z</time>
      </trkpt>
      <trkpt lat="45.08023" lon="5.95669">
        <ele>2281.08</ele>
        <time>2018-08-23T13:45:07Z</time>
      </trkpt>
      <trkpt lat="45.08009" lon="5.95652">
        <ele>2278.32</ele>
        <time>2018-08-23T13:45:25Z</time>
      </trkpt>
      <trkpt lat="45.07996" lon="5.95634">
        <ele>2274.71</ele>
        <time>2018-08-23T13:45:41Z</time>
      </trkpt>
      <trkpt lat="45.07979" lon="5.9562">
        <ele>2271.77</ele>
        <time>2018-08-23T13:45:56Z</time>
      </trkpt>
      <trkpt lat="45.07964" lon="5.95605">
        <ele>2269.57</ele>
        <time>2018-08-23T13:46:13Z</time>
      </trkpt>
      <trkpt lat="45.07946" lon="5.95594">
        <ele>2267.58</ele>
        <time>2018-08-23T13:46:28Z</time>
      </trkpt>
      <trkpt lat="45.07928" lon="5.95595">
        <ele>2266.79</ele>
        <time>2018-08-23T13:46:42Z</time>
      </trkpt>
      <trkpt lat="45.0791" lon="5.95595">
        <ele>2266.45</ele>
        <time>2018-08-23T13:46:56Z</time>
      </trkpt>
      <trkpt lat="45.07892" lon="5.95595">
        <ele>2264.86</ele>
        <time>2018-08-23T13:47:13Z</time>
      </trkpt>
      <trkpt lat="45.07878" lon="5.95576">
        <ele>2262.15</ele>
        <time>2018-08-23T13:47:31Z</time>
      </trkpt>
      <trkpt lat="45.07862" lon="5.95565">
        <ele>2259.03</ele>
        <time>2018-08-23T13:47:49Z</time>
      </trkpt>
      <trkpt lat="45.07845" lon="5.95554">
        <ele>2256.5</ele>
        <time>2018-08-23T13:48:05Z</time>
      </trkpt>
      <trkpt lat="45.07831" lon="5.95538">
        <ele>2254.03</ele>
        <time>2018-08-23T13:48:19Z</time>
      </trkpt>
      <trkpt lat="45.07814" lon="5.95526">
        <ele>2251.1</ele>
        <time>2018-08-23T13:48:36Z</time>
      </trkpt>
      <trkpt lat="45.078" lon="5.9551">
        <ele>2248.22</ele>
        <time>2018-08-23T13:48:50Z</time>
      </trkpt>
      <trkpt lat="45.07786" lon="5.95493">
        <ele>2245.87</ele>
        <time>2018-08-23T13:49:05Z</time>
      </trkpt>
      <trkpt lat="45.07769" lon="5.95484">
        <ele>2244</ele>
        <time>2018-08-23T13:49:20Z</time>
      </trkpt>
      <trkpt lat="45.07751" lon="5.95475">
        <ele>2242.41</ele>
        <time>2018-08-23T13:49:36Z</time>
      </trkpt>
      <trkpt lat="45.07737" lon="5.95459">
        <ele>2241.22</ele>
        <time>2018-08-23T13:49:55Z</time>
      </trkpt>
      <trkpt lat="45.0772" lon="5.95449">
        <ele>2240.39</ele>
        <time>2018-08-23T13:50:11Z</time>
      </trkpt>
      <trkpt lat="45.07702" lon="5.95442">
        <ele>2240.28</ele>
        <time>2018-08-23T13:50:27Z</time>
      </trkpt>
      <trkpt lat="45.07683" lon="5.9544">
        <ele>2239.19</ele>
        <time>2018-08-23T13:50:46Z</time>
      </trkpt>
      <trkpt lat="45.07665" lon="5.95437">
        <ele>2238.18</ele>
        <time>2018-08-23T13:51:02Z</time>
      </trkpt>
      <trkpt lat="45.07646" lon="5.95429">
        <ele>2237.54</ele>
        <time>2018-08-23T13:51:17Z</time>
      </trkpt>
      <trkpt lat="45.07631" lon="5.95414">
        <ele>2236.59</ele>
        <time>2018-08-23T13:51:33Z</time>
      </trkpt>
      <trkpt lat="45.07612" lon="5.95407">
        <ele>2235.22</ele>
        <time>2018-08-23T13:51:48Z</time>
      </trkpt>
      <trkpt lat="45.07595" lon="5.95403">
        <ele>2233.91</ele>
        <time>2018-08-23T13:52:05Z</time>
      </trkpt>
      <trkpt lat="45.07576" lon="5.95401">
        <ele>2233</ele>
        <time>2018-08-23T13:52:18Z</time>
      </trkpt>
      <trkpt lat="45.07559" lon="5.95394">
        <ele>2231.88</ele>
        <time>2018-08-23T13:52:31Z</time>
      </trkpt>
      <trkpt lat="45.07543" lon="5.9538">
        <ele>2228.54</ele>
        <time>2018-08-23T13:52:53Z</time>
      </trkpt>
      <trkpt lat="45.07526" lon="5.95372">
        <ele>2226.65</ele>
        <time>2018-08-23T13:53:09Z</time>
      </trkpt>
      <trkpt lat="45.07509" lon="5.95361">
        <ele>2224.3</ele>
        <time>2018-08-23T13:53:25Z</time>
      </trkpt>
      <trkpt lat="45.07494" lon="5.95344">
        <ele>2221.78</ele>
        <time>2018-08-23T13:53:42Z</time>
      </trkpt>
      <trkpt lat="45.07477" lon="5.95331">
        <ele>2220.45</ele>
        <time>2018-08-23T13:53:57Z</time>
      </trkpt>
      <trkpt lat="45.07459" lon="5.95324">
        <ele>2218.76</ele>
        <time>2018-08-23T13:54:11Z</time>
      </trkpt>
      <trkpt lat="45.07442" lon="5.95332">
        <ele>2216.73</ele>
        <time>2018-08-23T13:54:26Z</time>
      </trkpt>
      <trkpt lat="45.07423" lon="5.9533">
        <ele>2213.48</ele>
        <time>2018-08-23T13:54:42Z</time>
      </trkpt>
      <trkpt lat="45.07405" lon="5.95332">
        <ele>2210.75</ele>
        <time>2018-08-23T13:54:59Z</time>
      </trkpt>
      <trkpt lat="45.07385" lon="5.9533">
        <ele>2207.62</ele>
        <time>2018-08-23T13:55:15Z</time>
      </trkpt>
      <trkpt lat="45.07367" lon="5.95334">
        <ele>2204.48</ele>
        <time>2018-08-23T13:55:34Z</time>
      </trkpt>
      <trkpt lat="45.07348" lon="5.95337">
        <ele>2202.23</ele>
        <time>2018-08-23T13:55:49Z</time>
      </trkpt>
      <trkpt lat="45.0733" lon="5.95339">
        <ele>2200.18</ele>
        <time>2018-08-23T13:56:05Z</time>
      </trkpt>
      <trkpt lat="45.07312" lon="5.95339">
        <ele>2198.56</ele>
        <time>2018-08-23T13:56:21Z</time>
      </trkpt>
      <trkpt lat="45.07294" lon="5.95333">
        <ele>2196.13</ele>
        <time>2018-08-23T13:56:40Z</time>
      </trkpt>
      <trkpt lat="45.07275" lon="5.95333">
        <ele>2193.28</ele>
        <time>2018-08-23T13:56:56Z</time>
      </trkpt>
      <trkpt lat="45.07258" lon="5.95327">
        <ele>2190.7</ele>
        <time>2018-08-23T13:57:14Z</time>
      </trkpt>
      <trkpt lat="45.07241" lon="5.95315">
        <ele>2188.6</ele>
        <time>2018-08-23T13:57:29Z</time>
      </trkpt>
      <trkpt lat="45.07223" lon="5.95313">
        <ele>2186.14</ele>
        <time>2018-08-23T13:57:43Z</time>
      </trkpt>
      <trkpt lat="45.07204" lon="5.95312">
        <ele>2183.14</ele>
        <time>2018-08-23T13:57:58Z</time>
      </trkpt>
      <trkpt lat="45.07186" lon="5.95314">
        <ele>2179.72</ele>
        <time>2018-08-23T13:58:17Z</time>
      </trkpt>
      <trkpt lat="45.07167" lon="5.9531">
        <ele>2177.37</ele>
        <time>2018-08-23T13:58:32Z</time>
      </trkpt>
      <trkpt lat="45.07149" lon="5.95299">
        <ele>2175.04</ele>
        <time>2018-08-23T13:58:49Z</time>
      </trkpt>
      <trkpt lat="45.07131" lon="5.95288">
        <ele>2171.93</ele>
        <time>2018-08-23T13:59:08Z</time>
      </trkpt>
      <trkpt lat="45.07113" lon="5.95284">
        <ele>2168.51</ele>
        <time>2018-08-23T13:59:23Z</time>
      </trkpt>
      <trkpt lat="45.07095" lon="5.9529">
        <ele>2164.66</ele>
        <time>2018-08-23T13:59:41Z</time>
      </trkpt>
      <trkpt lat="45.07077" lon="5.95288">
        <ele>2161.8</ele>
        <time>2018-08-23T13:59:57Z</time>
      </trkpt>
      <trkpt lat="45.07059" lon="5.95291">
        <ele>2159.23</ele>
        <time>2018-08-23T14:00:13Z</time>
      </trkpt>
      <trkpt lat="45.07041" lon="5.95295">
        <ele>2157.45</ele>
        <time>2018-08-23T14:00:28Z</time>
      </trkpt>
      <trkpt lat="45.07023" lon="5.95292">
        <ele>2150.99</ele>
        <time>2018-08-23T14:01:35Z</time>
      </trkpt>
      <trkpt lat="45.07005" lon="5.95293">
        <ele>2148.82</ele>
        <time>2018-08-23T14:01:49Z</time>
      </trkpt>
      <trkpt lat="45.06987" lon="5.95295">
        <ele>2147.44</ele>
        <time>2018-08-23T14:02:02Z</time>
      </trkpt>
      <trkpt lat="45.06971" lon="5.95307">
        <ele>2146.3</ele>
        <time>2018-08-23T14:02:19Z</time>
      </trkpt>
      <trkpt lat="45.06952" lon="5.95314">
        <ele>2144.35</ele>
        <time>2018-08-23T14:02:37Z</time>
      </trkpt>
      <trkpt lat="45.06935" lon="5.95323">
        <ele>2143.5</ele>
        <time>2018-08-23T14:02:54Z</time>
      </trkpt>
      <trkpt lat="45.06917" lon="5.9532">
        <ele>2142.99</ele>
        <time>2018-08-23T14:03:09Z</time>
      </trkpt>
      <trkpt lat="45.06898" lon="5.95319">
        <ele>2142.52</ele>
        <time>2018-08-23T14:03:24Z</time>
      </trkpt>
      <trkpt lat="45.0688" lon="5.95315">
        <ele>2141.53</ele>
        <time>2018-08-23T14:03:38Z</time>
      </trkpt>
      <trkpt lat="45.06861" lon="5.95318">
        <ele>2139.27</ele>
        <time>2018-08-23T14:03:57Z</time>
      </trkpt>
      <trkpt lat="45.06842" lon="5.95322">
        <ele>2134.91</ele>
        <time>2018-08-23T14:04:15Z</time>
      </trkpt>
      <trkpt lat="45.06824" lon="5.95319">
        <ele>2131.14</ele>
        <time>2018-08-23T14:04:32Z</time>
      </trkpt>
      <trkpt lat="45.06805" lon="5.9532">
        <ele>2128.42</ele>
        <time>2018-08-23T14:04:49Z</time>
      </trkpt>
      <trkpt lat="45.06787" lon="5.95323">
        <ele>2125.04</ele>
        <time>2018-08-23T14:05:06Z</time>
      </trkpt>
      <trkpt lat="45.06768" lon="5.95323">
        <ele>2122.32</ele>
        <time>2018-08-23T14:05:19Z</time>
      </trkpt>
      <trkpt lat="45.06749" lon="5.95329">
        <ele>2119.25</ele>
        <time>2018-08-23T14:05:32Z</time>
      </trkpt>
      <trkpt lat="45.0673" lon="5.95333">
        <ele>2115.11</ele>
        <time>2018-08-23T14:05:48Z</time>
      </trkpt>
      <trkpt lat="45.06713" lon="5.95346">
        <ele>2111.51</ele>
        <time>2018-08-23T14:06:04Z</time>
      </trkpt>
      <trkpt lat="45.06696" lon="5.95353">
        <ele>2109.62</ele>
        <time>2018-08-23T14:06:17Z</time>
      </trkpt>
      <trkpt lat="45.06677" lon="5.95354">
        <ele>2109.29</ele>
        <time>2018-08-23T14:06:31Z</time>
      </trkpt>
      <trkpt lat="45.06659" lon="5.95352">
        <ele>2107.95</ele>
        <time>2018-08-23T14:06:48Z</time>
      </trkpt>
      <trkpt lat="45.06641" lon="5.95359">
        <ele>2106.16</ele>
        <time>2018-08-23T14:07:03Z</time>
      </trkpt>
      <trkpt lat="45.06623" lon="5.9537">
        <ele>2103.76</ele>
        <time>2018-08-23T14:07:19Z</time>
      </trkpt>
      <trkpt lat="45.06605" lon="5.95376">
        <ele>2102.04</ele>
        <time>2018-08-23T14:07:34Z</time>
      </trkpt>
      <trkpt lat="45.06587" lon="5.95384">
        <ele>2099.92</ele>
        <time>2018-08-23T14:07:50Z</time>
      </trkpt>
      <trkpt lat="45.06569" lon="5.95377">
        <ele>2098.39</ele>
        <time>2018-08-23T14:08:04Z</time>
      </trkpt>
      <trkpt lat="45.0655" lon="5.95384">
        <ele>2096.95</ele>
        <time>2018-08-23T14:08:21Z</time>
      </trkpt>
      <trkpt lat="45.06531" lon="5.95388">
        <ele>2094.89</ele>
        <time>2018-08-23T14:08:38Z</time>
      </trkpt>
      <trkpt lat="45.06513" lon="5.95394">
        <ele>2092.81</ele>
        <time>2018-08-23T14:08:52Z</time>
      </trkpt>
      <trkpt lat="45.06493" lon="5.95395">
        <ele>2089.95</ele>
        <time>2018-08-23T14:09:09Z</time>
      </trkpt>
      <trkpt lat="45.06481" lon="5.95414">
        <ele>2087.8</ele>
        <time>2018-08-23T14:09:25Z</time>
      </trkpt>
      <trkpt lat="45.06463" lon="5.9542">
        <ele>2085.62</ele>
        <time>2018-08-23T14:09:42Z</time>
      </trkpt>
      <trkpt lat="45.06444" lon="5.95422">
        <ele>2084.47</ele>
        <time>2018-08-23T14:09:58Z</time>
      </trkpt>
      <trkpt lat="45.06425" lon="5.95423">
        <ele>2083.62</ele>
        <time>2018-08-23T14:10:15Z</time>
      </trkpt>
      <trkpt lat="45.06407" lon="5.95431">
        <ele>2080.2</ele>
        <time>2018-08-23T14:10:33Z</time>
      </trkpt>
      <trkpt lat="45.06392" lon="5.95447">
        <ele>2077.93</ele>
        <time>2018-08-23T14:10:49Z</time>
      </trkpt>
      <trkpt lat="45.06374" lon="5.95459">
        <ele>2076.13</ele>
        <time>2018-08-23T14:11:04Z</time>
      </trkpt>
      <trkpt lat="45.06356" lon="5.95456">
        <ele>2072.93</ele>
        <time>2018-08-23T14:11:21Z</time>
      </trkpt>
      <trkpt lat="45.0636" lon="5.95481">
        <ele>2069.49</ele>
        <time>2018-08-23T14:12:11Z</time>
      </trkpt>
      <trkpt lat="45.06348" lon="5.95462">
        <ele>2069.08</ele>
        <time>2018-08-23T14:14:43Z</time>
      </trkpt>
      <trkpt lat="45.06338" lon="5.95439">
        <ele>2062.48</ele>
        <time>2018-08-23T14:21:18Z</time>
      </trkpt>
      <trkpt lat="45.06323" lon="5.95423">
        <ele>2061.45</ele>
        <time>2018-08-23T14:21:27Z</time>
      </trkpt>
      <trkpt lat="45.06306" lon="5.95409">
        <ele>2059.67</ele>
        <time>2018-08-23T14:21:40Z</time>
      </trkpt>
      <trkpt lat="45.06289" lon="5.95415">
        <ele>2055.65</ele>
        <time>2018-08-23T14:22:41Z</time>
      </trkpt>
      <trkpt lat="45.06275" lon="5.95433">
        <ele>2054.09</ele>
        <time>2018-08-23T14:22:54Z</time>
      </trkpt>
      <trkpt lat="45.06258" lon="5.95443">
        <ele>2052.63</ele>
        <time>2018-08-23T14:23:04Z</time>
      </trkpt>
      <trkpt lat="45.06243" lon="5.95456">
        <ele>2050.81</ele>
        <time>2018-08-23T14:23:17Z</time>
      </trkpt>
      <trkpt lat="45.06228" lon="5.95473">
        <ele>2048.57</ele>
        <time>2018-08-23T14:23:32Z</time>
      </trkpt>
      <trkpt lat="45.0621" lon="5.95485">
        <ele>2046.84</ele>
        <time>2018-08-23T14:23:45Z</time>
      </trkpt>
      <trkpt lat="45.06197" lon="5.95502">
        <ele>2044.57</ele>
        <time>2018-08-23T14:24:04Z</time>
      </trkpt>
      <trkpt lat="45.0619" lon="5.95527">
        <ele>2042.28</ele>
        <time>2018-08-23T14:24:16Z</time>
      </trkpt>
      <trkpt lat="45.06186" lon="5.95554">
        <ele>2039.64</ele>
        <time>2018-08-23T14:24:31Z</time>
      </trkpt>
      <trkpt lat="45.06183" lon="5.95579">
        <ele>2036.65</ele>
        <time>2018-08-23T14:24:43Z</time>
      </trkpt>
      <trkpt lat="45.06185" lon="5.95606">
        <ele>2033.18</ele>
        <time>2018-08-23T14:24:55Z</time>
      </trkpt>
      <trkpt lat="45.06193" lon="5.95631">
        <ele>2029.92</ele>
        <time>2018-08-23T14:25:09Z</time>
      </trkpt>
      <trkpt lat="45.06205" lon="5.95651">
        <ele>2026.05</ele>
        <time>2018-08-23T14:25:26Z</time>
      </trkpt>
      <trkpt lat="45.06218" lon="5.9567">
        <ele>2023.54</ele>
        <time>2018-08-23T14:25:39Z</time>
      </trkpt>
      <trkpt lat="45.06233" lon="5.95682">
        <ele>2021.77</ele>
        <time>2018-08-23T14:25:53Z</time>
      </trkpt>
      <trkpt lat="45.06247" lon="5.95702">
        <ele>2021.3</ele>
        <time>2018-08-23T14:26:08Z</time>
      </trkpt>
      <trkpt lat="45.06266" lon="5.95702">
        <ele>2021.07</ele>
        <time>2018-08-23T14:26:23Z</time>
      </trkpt>
      <trkpt lat="45.06284" lon="5.95702">
        <ele>2019.91</ele>
        <time>2018-08-23T14:26:40Z</time>
      </trkpt>
      <trkpt lat="45.06302" lon="5.95707">
        <ele>2019.69</ele>
        <time>2018-08-23T14:26:50Z</time>
      </trkpt>
      <trkpt lat="45.06317" lon="5.95723">
        <ele>2018.63</ele>
        <time>2018-08-23T14:26:58Z</time>
      </trkpt>
      <trkpt lat="45.06332" lon="5.95737">
        <ele>2017.1</ele>
        <time>2018-08-23T14:27:09Z</time>
      </trkpt>
      <trkpt lat="45.06345" lon="5.95757">
        <ele>2015.47</ele>
        <time>2018-08-23T14:27:22Z</time>
      </trkpt>
      <trkpt lat="45.06354" lon="5.95782">
        <ele>2014.37</ele>
        <time>2018-08-23T14:27:35Z</time>
      </trkpt>
      <trkpt lat="45.06363" lon="5.95805">
        <ele>2013.24</ele>
        <time>2018-08-23T14:27:48Z</time>
      </trkpt>
      <trkpt lat="45.0637" lon="5.9583">
        <ele>2011.65</ele>
        <time>2018-08-23T14:28:02Z</time>
      </trkpt>
      <trkpt lat="45.0638" lon="5.95852">
        <ele>2010.81</ele>
        <time>2018-08-23T14:28:15Z</time>
      </trkpt>
      <trkpt lat="45.06391" lon="5.95874">
        <ele>2009.8</ele>
        <time>2018-08-23T14:28:28Z</time>
      </trkpt>
      <trkpt lat="45.06399" lon="5.95899">
        <ele>2008.91</ele>
        <time>2018-08-23T14:28:41Z</time>
      </trkpt>
      <trkpt lat="45.06411" lon="5.9592">
        <ele>2007.78</ele>
        <time>2018-08-23T14:28:57Z</time>
      </trkpt>
      <trkpt lat="45.06415" lon="5.95945">
        <ele>2005.81</ele>
        <time>2018-08-23T14:29:11Z</time>
      </trkpt>
      <trkpt lat="45.06417" lon="5.95971">
        <ele>2004.58</ele>
        <time>2018-08-23T14:29:24Z</time>
      </trkpt>
      <trkpt lat="45.06418" lon="5.95998">
        <ele>2003.05</ele>
        <time>2018-08-23T14:29:38Z</time>
      </trkpt>
      <trkpt lat="45.06408" lon="5.96019">
        <ele>1999.44</ele>
        <time>2018-08-23T14:29:53Z</time>
      </trkpt>
      <trkpt lat="45.06402" lon="5.96043">
        <ele>1996.56</ele>
        <time>2018-08-23T14:30:07Z</time>
      </trkpt>
      <trkpt lat="45.06406" lon="5.96069">
        <ele>1994.58</ele>
        <time>2018-08-23T14:30:17Z</time>
      </trkpt>
      <trkpt lat="45.06405" lon="5.96095">
        <ele>1992.36</ele>
        <time>2018-08-23T14:30:31Z</time>
      </trkpt>
      <trkpt lat="45.06398" lon="5.96118">
        <ele>1990.77</ele>
        <time>2018-08-23T14:30:45Z</time>
      </trkpt>
      <trkpt lat="45.06393" lon="5.96145">
        <ele>1986.94</ele>
        <time>2018-08-23T14:31:00Z</time>
      </trkpt>
      <trkpt lat="45.06389" lon="5.96172">
        <ele>1984.99</ele>
        <time>2018-08-23T14:31:13Z</time>
      </trkpt>
      <trkpt lat="45.06388" lon="5.96198">
        <ele>1983.44</ele>
        <time>2018-08-23T14:31:25Z</time>
      </trkpt>
      <trkpt lat="45.06386" lon="5.96224">
        <ele>1981.47</ele>
        <time>2018-08-23T14:31:37Z</time>
      </trkpt>
      <trkpt lat="45.06386" lon="5.96253">
        <ele>1979.59</ele>
        <time>2018-08-23T14:31:50Z</time>
      </trkpt>
      <trkpt lat="45.06388" lon="5.9628">
        <ele>1977.3</ele>
        <time>2018-08-23T14:32:04Z</time>
      </trkpt>
      <trkpt lat="45.06388" lon="5.96308">
        <ele>1975.37</ele>
        <time>2018-08-23T14:32:17Z</time>
      </trkpt>
      <trkpt lat="45.06392" lon="5.96334">
        <ele>1973.53</ele>
        <time>2018-08-23T14:32:30Z</time>
      </trkpt>
      <trkpt lat="45.06395" lon="5.9636">
        <ele>1972.1</ele>
        <time>2018-08-23T14:32:46Z</time>
      </trkpt>
      <trkpt lat="45.06396" lon="5.96387">
        <ele>1969.92</ele>
        <time>2018-08-23T14:33:02Z</time>
      </trkpt>
      <trkpt lat="45.06393" lon="5.96414">
        <ele>1967.92</ele>
        <time>2018-08-23T14:33:15Z</time>
      </trkpt>
      <trkpt lat="45.06392" lon="5.96439">
        <ele>1966.57</ele>
        <time>2018-08-23T14:33:27Z</time>
      </trkpt>
      <trkpt lat="45.06402" lon="5.96462">
        <ele>1964.69</ele>
        <time>2018-08-23T14:33:40Z</time>
      </trkpt>
      <trkpt lat="45.06412" lon="5.96487">
        <ele>1963.41</ele>
        <time>2018-08-23T14:33:54Z</time>
      </trkpt>
      <trkpt lat="45.06416" lon="5.96512">
        <ele>1961.69</ele>
        <time>2018-08-23T14:34:09Z</time>
      </trkpt>
      <trkpt lat="45.06419" lon="5.96538">
        <ele>1959.15</ele>
        <time>2018-08-23T14:34:25Z</time>
      </trkpt>
      <trkpt lat="45.06424" lon="5.96563">
        <ele>1956.85</ele>
        <time>2018-08-23T14:34:39Z</time>
      </trkpt>
      <trkpt lat="45.06431" lon="5.96587">
        <ele>1955.28</ele>
        <time>2018-08-23T14:34:52Z</time>
      </trkpt>
      <trkpt lat="45.06443" lon="5.96607">
        <ele>1953.28</ele>
        <time>2018-08-23T14:35:07Z</time>
      </trkpt>
      <trkpt lat="45.06451" lon="5.96632">
        <ele>1951.32</ele>
        <time>2018-08-23T14:35:21Z</time>
      </trkpt>
      <trkpt lat="45.06459" lon="5.96656">
        <ele>1949.84</ele>
        <time>2018-08-23T14:35:34Z</time>
      </trkpt>
      <trkpt lat="45.06456" lon="5.96684">
        <ele>1946.08</ele>
        <time>2018-08-23T14:35:53Z</time>
      </trkpt>
      <trkpt lat="45.06448" lon="5.96707">
        <ele>1941.33</ele>
        <time>2018-08-23T14:36:11Z</time>
      </trkpt>
      <trkpt lat="45.0646" lon="5.96727">
        <ele>1937.43</ele>
        <time>2018-08-23T14:36:26Z</time>
      </trkpt>
      <trkpt lat="45.0647" lon="5.96749">
        <ele>1932.74</ele>
        <time>2018-08-23T14:36:42Z</time>
      </trkpt>
      <trkpt lat="45.06477" lon="5.96773">
        <ele>1926.05</ele>
        <time>2018-08-23T14:37:05Z</time>
      </trkpt>
      <trkpt lat="45.06485" lon="5.96797">
        <ele>1920.37</ele>
        <time>2018-08-23T14:37:26Z</time>
      </trkpt>
      <trkpt lat="45.06471" lon="5.96814">
        <ele>1913.21</ele>
        <time>2018-08-23T14:37:48Z</time>
      </trkpt>
      <trkpt lat="45.06454" lon="5.96823">
        <ele>1909.09</ele>
        <time>2018-08-23T14:38:01Z</time>
      </trkpt>
      <trkpt lat="45.06451" lon="5.96848">
        <ele>1902.33</ele>
        <time>2018-08-23T14:38:26Z</time>
      </trkpt>
      <trkpt lat="45.0644" lon="5.96868">
        <ele>1895.81</ele>
        <time>2018-08-23T14:38:49Z</time>
      </trkpt>
      <trkpt lat="45.06424" lon="5.96883">
        <ele>1891.2</ele>
        <time>2018-08-23T14:39:05Z</time>
      </trkpt>
      <trkpt lat="45.06407" lon="5.96892">
        <ele>1886.85</ele>
        <time>2018-08-23T14:39:19Z</time>
      </trkpt>
      <trkpt lat="45.06392" lon="5.96908">
        <ele>1882.97</ele>
        <time>2018-08-23T14:39:34Z</time>
      </trkpt>
      <trkpt lat="45.06391" lon="5.96933">
        <ele>1879.15</ele>
        <time>2018-08-23T14:39:49Z</time>
      </trkpt>
      <trkpt lat="45.06404" lon="5.96952">
        <ele>1875.96</ele>
        <time>2018-08-23T14:40:01Z</time>
      </trkpt>
      <trkpt lat="45.0642" lon="5.96966">
        <ele>1871.15</ele>
        <time>2018-08-23T14:40:17Z</time>
      </trkpt>
      <trkpt lat="45.06439" lon="5.96973">
        <ele>1867.01</ele>
        <time>2018-08-23T14:40:29Z</time>
      </trkpt>
      <trkpt lat="45.06458" lon="5.96977">
        <ele>1861.4</ele>
        <time>2018-08-23T14:40:44Z</time>
      </trkpt>
      <trkpt lat="45.0645" lon="5.97">
        <ele>1857.04</ele>
        <time>2018-08-23T14:41:01Z</time>
      </trkpt>
      <trkpt lat="45.06434" lon="5.97012">
        <ele>1853.46</ele>
        <time>2018-08-23T14:41:14Z</time>
      </trkpt>
      <trkpt lat="45.06416" lon="5.97014">
        <ele>1849.96</ele>
        <time>2018-08-23T14:41:27Z</time>
      </trkpt>
      <trkpt lat="45.064" lon="5.97027">
        <ele>1846.5</ele>
        <time>2018-08-23T14:41:40Z</time>
      </trkpt>
      <trkpt lat="45.06385" lon="5.97043">
        <ele>1842.52</ele>
        <time>2018-08-23T14:41:54Z</time>
      </trkpt>
      <trkpt lat="45.06389" lon="5.97069">
        <ele>1836.01</ele>
        <time>2018-08-23T14:42:15Z</time>
      </trkpt>
      <trkpt lat="45.06398" lon="5.97093">
        <ele>1832.99</ele>
        <time>2018-08-23T14:42:27Z</time>
      </trkpt>
      <trkpt lat="45.06408" lon="5.97114">
        <ele>1829.67</ele>
        <time>2018-08-23T14:42:41Z</time>
      </trkpt>
      <trkpt lat="45.06394" lon="5.97131">
        <ele>1825.03</ele>
        <time>2018-08-23T14:42:56Z</time>
      </trkpt>
      <trkpt lat="45.06375" lon="5.97129">
        <ele>1819.57</ele>
        <time>2018-08-23T14:43:11Z</time>
      </trkpt>
      <trkpt lat="45.0638" lon="5.97155">
        <ele>1814.19</ele>
        <time>2018-08-23T14:43:26Z</time>
      </trkpt>
      <trkpt lat="45.06362" lon="5.97158">
        <ele>1807.95</ele>
        <time>2018-08-23T14:43:46Z</time>
      </trkpt>
      <trkpt lat="45.06344" lon="5.97148">
        <ele>1802.94</ele>
        <time>2018-08-23T14:44:01Z</time>
      </trkpt>
      <trkpt lat="45.06326" lon="5.97137">
        <ele>1798.97</ele>
        <time>2018-08-23T14:44:15Z</time>
      </trkpt>
      <trkpt lat="45.06309" lon="5.97129">
        <ele>1794.5</ele>
        <time>2018-08-23T14:44:28Z</time>
      </trkpt>
      <trkpt lat="45.0629" lon="5.97117">
        <ele>1789.12</ele>
        <time>2018-08-23T14:44:41Z</time>
      </trkpt>
      <trkpt lat="45.06276" lon="5.97102">
        <ele>1785.06</ele>
        <time>2018-08-23T14:44:52Z</time>
      </trkpt>
      <trkpt lat="45.06259" lon="5.97089">
        <ele>1775.23</ele>
        <time>2018-08-23T14:45:27Z</time>
      </trkpt>
      <trkpt lat="45.06258" lon="5.97115">
        <ele>1769.1</ele>
        <time>2018-08-23T14:45:45Z</time>
      </trkpt>
      <trkpt lat="45.06262" lon="5.97141">
        <ele>1764.97</ele>
        <time>2018-08-23T14:45:56Z</time>
      </trkpt>
      <trkpt lat="45.06243" lon="5.97139">
        <ele>1751.9</ele>
        <time>2018-08-23T14:46:30Z</time>
      </trkpt>
      <trkpt lat="45.06226" lon="5.97126">
        <ele>1746.7</ele>
        <time>2018-08-23T14:46:43Z</time>
      </trkpt>
      <trkpt lat="45.06211" lon="5.97111">
        <ele>1741.89</ele>
        <time>2018-08-23T14:46:57Z</time>
      </trkpt>
      <trkpt lat="45.06197" lon="5.97095">
        <ele>1736.87</ele>
        <time>2018-08-23T14:47:11Z</time>
      </trkpt>
      <trkpt lat="45.06184" lon="5.97076">
        <ele>1732.29</ele>
        <time>2018-08-23T14:47:24Z</time>
      </trkpt>
      <trkpt lat="45.06169" lon="5.97062">
        <ele>1727.77</ele>
        <time>2018-08-23T14:47:38Z</time>
      </trkpt>
      <trkpt lat="45.06152" lon="5.97051">
        <ele>1722.43</ele>
        <time>2018-08-23T14:47:52Z</time>
      </trkpt>
      <trkpt lat="45.06136" lon="5.97036">
        <ele>1715.06</ele>
        <time>2018-08-23T14:48:13Z</time>
      </trkpt>
      <trkpt lat="45.06118" lon="5.97027">
        <ele>1709.56</ele>
        <time>2018-08-23T14:48:27Z</time>
      </trkpt>
      <trkpt lat="45.06105" lon="5.97009">
        <ele>1703.39</ele>
        <time>2018-08-23T14:48:43Z</time>
      </trkpt>
      <trkpt lat="45.06094" lon="5.96988">
        <ele>1699.35</ele>
        <time>2018-08-23T14:48:55Z</time>
      </trkpt>
      <trkpt lat="45.06079" lon="5.96972">
        <ele>1694.31</ele>
        <time>2018-08-23T14:49:09Z</time>
      </trkpt>
      <trkpt lat="45.06061" lon="5.96966">
        <ele>1689.5</ele>
        <time>2018-08-23T14:49:22Z</time>
      </trkpt>
      <trkpt lat="45.06043" lon="5.96957">
        <ele>1683.65</ele>
        <time>2018-08-23T14:49:37Z</time>
      </trkpt>
      <trkpt lat="45.06026" lon="5.96946">
        <ele>1678.29</ele>
        <time>2018-08-23T14:49:51Z</time>
      </trkpt>
      <trkpt lat="45.06013" lon="5.96964">
        <ele>1663.04</ele>
        <time>2018-08-23T14:50:27Z</time>
      </trkpt>
      <trkpt lat="45.05996" lon="5.96953">
        <ele>1660.28</ele>
        <time>2018-08-23T14:50:39Z</time>
      </trkpt>
      <trkpt lat="45.05978" lon="5.96943">
        <ele>1658.56</ele>
        <time>2018-08-23T14:50:50Z</time>
      </trkpt>
      <trkpt lat="45.05961" lon="5.96932">
        <ele>1651.98</ele>
        <time>2018-08-23T14:51:17Z</time>
      </trkpt>
      <trkpt lat="45.05969" lon="5.96956">
        <ele>1645.28</ele>
        <time>2018-08-23T14:51:33Z</time>
      </trkpt>
      <trkpt lat="45.05975" lon="5.96981">
        <ele>1639.16</ele>
        <time>2018-08-23T14:51:47Z</time>
      </trkpt>
      <trkpt lat="45.05959" lon="5.96993">
        <ele>1627.96</ele>
        <time>2018-08-23T14:52:16Z</time>
      </trkpt>
      <trkpt lat="45.05942" lon="5.96986">
        <ele>1623.27</ele>
        <time>2018-08-23T14:52:30Z</time>
      </trkpt>
      <trkpt lat="45.05924" lon="5.96979">
        <ele>1619.51</ele>
        <time>2018-08-23T14:52:41Z</time>
      </trkpt>
      <trkpt lat="45.05907" lon="5.96971">
        <ele>1615.21</ele>
        <time>2018-08-23T14:52:55Z</time>
      </trkpt>
      <trkpt lat="45.05895" lon="5.96951">
        <ele>1611.3</ele>
        <time>2018-08-23T14:53:09Z</time>
      </trkpt>
      <trkpt lat="45.05895" lon="5.96979">
        <ele>1604.12</ele>
        <time>2018-08-23T14:53:31Z</time>
      </trkpt>
      <trkpt lat="45.05878" lon="5.96967">
        <ele>1597.97</ele>
        <time>2018-08-23T14:53:50Z</time>
      </trkpt>
      <trkpt lat="45.05861" lon="5.96978">
        <ele>1585</ele>
        <time>2018-08-23T14:54:29Z</time>
      </trkpt>
      <trkpt lat="45.05846" lon="5.96961">
        <ele>1580.54</ele>
        <time>2018-08-23T14:54:41Z</time>
      </trkpt>
      <trkpt lat="45.05839" lon="5.96936">
        <ele>1576.43</ele>
        <time>2018-08-23T14:54:54Z</time>
      </trkpt>
      <trkpt lat="45.05837" lon="5.9691">
        <ele>1571.49</ele>
        <time>2018-08-23T14:55:10Z</time>
      </trkpt>
      <trkpt lat="45.05818" lon="5.96917">
        <ele>1560.94</ele>
        <time>2018-08-23T14:55:43Z</time>
      </trkpt>
      <trkpt lat="45.05806" lon="5.96938">
        <ele>1554.13</ele>
        <time>2018-08-23T14:55:58Z</time>
      </trkpt>
      <trkpt lat="45.05789" lon="5.96948">
        <ele>1543.57</ele>
        <time>2018-08-23T14:56:24Z</time>
      </trkpt>
      <trkpt lat="45.05774" lon="5.96963">
        <ele>1536.08</ele>
        <time>2018-08-23T14:56:46Z</time>
      </trkpt>
      <trkpt lat="45.05756" lon="5.96961">
        <ele>1526.89</ele>
        <time>2018-08-23T14:57:10Z</time>
      </trkpt>
      <trkpt lat="45.05744" lon="5.96983">
        <ele>1518.81</ele>
        <time>2018-08-23T14:57:32Z</time>
      </trkpt>
      <trkpt lat="45.05726" lon="5.96977">
        <ele>1514.31</ele>
        <time>2018-08-23T14:57:48Z</time>
      </trkpt>
      <trkpt lat="45.0571" lon="5.96966">
        <ele>1511.89</ele>
        <time>2018-08-23T14:58:00Z</time>
      </trkpt>
      <trkpt lat="45.0571" lon="5.96939">
        <ele>1509.42</ele>
        <time>2018-08-23T14:58:14Z</time>
      </trkpt>
      <trkpt lat="45.05696" lon="5.96956">
        <ele>1504.64</ele>
        <time>2018-08-23T14:58:32Z</time>
      </trkpt>
      <trkpt lat="45.05688" lon="5.9698">
        <ele>1498.59</ele>
        <time>2018-08-23T14:58:47Z</time>
      </trkpt>
      <trkpt lat="45.05696" lon="5.97005">
        <ele>1493.78</ele>
        <time>2018-08-23T14:59:01Z</time>
      </trkpt>
      <trkpt lat="45.05707" lon="5.97025">
        <ele>1489.57</ele>
        <time>2018-08-23T14:59:15Z</time>
      </trkpt>
      <trkpt lat="45.05722" lon="5.9704">
        <ele>1486.7</ele>
        <time>2018-08-23T14:59:26Z</time>
      </trkpt>
      <trkpt lat="45.05733" lon="5.9706">
        <ele>1482.89</ele>
        <time>2018-08-23T14:59:41Z</time>
      </trkpt>
      <trkpt lat="45.0574" lon="5.97084">
        <ele>1479.98</ele>
        <time>2018-08-23T14:59:53Z</time>
      </trkpt>
      <trkpt lat="45.05751" lon="5.97104">
        <ele>1476.93</ele>
        <time>2018-08-23T15:00:06Z</time>
      </trkpt>
      <trkpt lat="45.05759" lon="5.97128">
        <ele>1474.06</ele>
        <time>2018-08-23T15:00:19Z</time>
      </trkpt>
      <trkpt lat="45.05771" lon="5.97149">
        <ele>1471.81</ele>
        <time>2018-08-23T15:00:31Z</time>
      </trkpt>
      <trkpt lat="45.05779" lon="5.97173">
        <ele>1469.21</ele>
        <time>2018-08-23T15:00:46Z</time>
      </trkpt>
      <trkpt lat="45.05793" lon="5.9719">
        <ele>1466.98</ele>
        <time>2018-08-23T15:01:00Z</time>
      </trkpt>
      <trkpt lat="45.05805" lon="5.97211">
        <ele>1464.11</ele>
        <time>2018-08-23T15:01:16Z</time>
      </trkpt>
      <trkpt lat="45.058" lon="5.97236">
        <ele>1462.3</ele>
        <time>2018-08-23T15:01:31Z</time>
      </trkpt>
      <trkpt lat="45.05789" lon="5.97256">
        <ele>1460.64</ele>
        <time>2018-08-23T15:01:44Z</time>
      </trkpt>
      <trkpt lat="45.05795" lon="5.97281">
        <ele>1458.16</ele>
        <time>2018-08-23T15:01:58Z</time>
      </trkpt>
      <trkpt lat="45.05806" lon="5.97301">
        <ele>1454.49</ele>
        <time>2018-08-23T15:02:14Z</time>
      </trkpt>
      <trkpt lat="45.0582" lon="5.97321">
        <ele>1451.51</ele>
        <time>2018-08-23T15:02:28Z</time>
      </trkpt>
      <trkpt lat="45.05833" lon="5.97343">
        <ele>1448.02</ele>
        <time>2018-08-23T15:02:42Z</time>
      </trkpt>
      <trkpt lat="45.05834" lon="5.97368">
        <ele>1445.98</ele>
        <time>2018-08-23T15:02:54Z</time>
      </trkpt>
      <trkpt lat="45.05837" lon="5.97394">
        <ele>1444.38</ele>
        <time>2018-08-23T15:03:08Z</time>
      </trkpt>
      <trkpt lat="45.05837" lon="5.97421">
        <ele>1442.21</ele>
        <time>2018-08-23T15:03:23Z</time>
      </trkpt>
      <trkpt lat="45.05822" lon="5.97437">
        <ele>1440.28</ele>
        <time>2018-08-23T15:03:37Z</time>
      </trkpt>
      <trkpt lat="45.05804" lon="5.97439">
        <ele>1438.73</ele>
        <time>2018-08-23T15:03:49Z</time>
      </trkpt>
      <trkpt lat="45.05785" lon="5.97438">
        <ele>1435.2</ele>
        <time>2018-08-23T15:04:06Z</time>
      </trkpt>
      <trkpt lat="45.05767" lon="5.97442">
        <ele>1432.15</ele>
        <time>2018-08-23T15:04:20Z</time>
      </trkpt>
      <trkpt lat="45.05749" lon="5.97445">
        <ele>1429.62</ele>
        <time>2018-08-23T15:04:32Z</time>
      </trkpt>
      <trkpt lat="45.05731" lon="5.97449">
        <ele>1426.83</ele>
        <time>2018-08-23T15:04:46Z</time>
      </trkpt>
      <trkpt lat="45.05712" lon="5.97446">
        <ele>1424.86</ele>
        <time>2018-08-23T15:04:58Z</time>
      </trkpt>
      <trkpt lat="45.05693" lon="5.97445">
        <ele>1424.27</ele>
        <time>2018-08-23T15:05:09Z</time>
      </trkpt>
      <trkpt lat="45.05675" lon="5.97437">
        <ele>1423.21</ele>
        <time>2018-08-23T15:05:24Z</time>
      </trkpt>
      <trkpt lat="45.05657" lon="5.97428">
        <ele>1421.7</ele>
        <time>2018-08-23T15:05:38Z</time>
      </trkpt>
      <trkpt lat="45.05638" lon="5.97424">
        <ele>1419.91</ele>
        <time>2018-08-23T15:05:53Z</time>
      </trkpt>
      <trkpt lat="45.0562" lon="5.97417">
        <ele>1418.17</ele>
        <time>2018-08-23T15:06:06Z</time>
      </trkpt>
      <trkpt lat="45.05602" lon="5.97423">
        <ele>1416.72</ele>
        <time>2018-08-23T15:06:19Z</time>
      </trkpt>
      <trkpt lat="45.05583" lon="5.97429">
        <ele>1415.21</ele>
        <time>2018-08-23T15:06:33Z</time>
      </trkpt>
      <trkpt lat="45.05564" lon="5.97428">
        <ele>1413.42</ele>
        <time>2018-08-23T15:06:46Z</time>
      </trkpt>
      <trkpt lat="45.05544" lon="5.97424">
        <ele>1411</ele>
        <time>2018-08-23T15:07:14Z</time>
      </trkpt>
    </trkseg>
  </trk>
</gpx>